<?xml version="1.0" encoding="UTF-8" standalone="no" ?>
<gpx xmlns="http://www.topografix.com/GPX/1/1" xmlns:xsi="http://www.w3.org/2001/XMLSchema-instance" xsi:schemaLocation="http://www.topografix.com/GPX/1/1 http://www.topografix.com/GPX/1/1/gpx.xsd" version="1.1" creator="VisuGPX - https://www.visugpx.com">
  <metadata>
    <name>Marche Adeps</name>
    <desc><![CDATA[DIMANCHE 30 JUILLET 2017
Belle marche adeps dans le Brabant Wallon  (Haut-Ittre).]]></desc>
  </metadata>
  <trk>
    <name><![CDATA[ITTRE07-30 11:06:41]]></name>
    <trkseg>
      <trkpt lat="50.65435" lon="4.2958">
        <ele>117.9</ele>
        <time>2017-07-30T07:08:01Z</time>
      </trkpt>
      <trkpt lat="50.65434" lon="4.29581">
        <ele>116.46</ele>
        <time>2017-07-30T07:08:06Z</time>
      </trkpt>
      <trkpt lat="50.65432" lon="4.2958">
        <ele>115.5</ele>
        <time>2017-07-30T07:08:37Z</time>
      </trkpt>
      <trkpt lat="50.65431" lon="4.29579">
        <ele>116.94</ele>
        <time>2017-07-30T07:08:56Z</time>
      </trkpt>
      <trkpt lat="50.65434" lon="4.29582">
        <ele>116.94</ele>
        <time>2017-07-30T07:09:14Z</time>
      </trkpt>
      <trkpt lat="50.65435" lon="4.29579">
        <ele>115.98</ele>
        <time>2017-07-30T07:09:16Z</time>
      </trkpt>
      <trkpt lat="50.6543" lon="4.29567">
        <ele>115.5</ele>
        <time>2017-07-30T07:09:29Z</time>
      </trkpt>
      <trkpt lat="50.65429" lon="4.29566">
        <ele>115.5</ele>
        <time>2017-07-30T07:09:30Z</time>
      </trkpt>
      <trkpt lat="50.65425" lon="4.29564">
        <ele>115.5</ele>
        <time>2017-07-30T07:09:35Z</time>
      </trkpt>
      <trkpt lat="50.65409" lon="4.29558">
        <ele>113.09</ele>
        <time>2017-07-30T07:09:52Z</time>
      </trkpt>
      <trkpt lat="50.65391" lon="4.29546">
        <ele>111.65</ele>
        <time>2017-07-30T07:10:07Z</time>
      </trkpt>
      <trkpt lat="50.6539" lon="4.29546">
        <ele>111.65</ele>
        <time>2017-07-30T07:10:08Z</time>
      </trkpt>
      <trkpt lat="50.65387" lon="4.29542">
        <ele>110.69</ele>
        <time>2017-07-30T07:10:12Z</time>
      </trkpt>
      <trkpt lat="50.65364" lon="4.29531">
        <ele>110.21</ele>
        <time>2017-07-30T07:10:31Z</time>
      </trkpt>
      <trkpt lat="50.65351" lon="4.29526">
        <ele>106.84</ele>
        <time>2017-07-30T07:10:43Z</time>
      </trkpt>
      <trkpt lat="50.65349" lon="4.29525">
        <ele>106.84</ele>
        <time>2017-07-30T07:10:44Z</time>
      </trkpt>
      <trkpt lat="50.65341" lon="4.29519">
        <ele>106.36</ele>
        <time>2017-07-30T07:10:51Z</time>
      </trkpt>
      <trkpt lat="50.65329" lon="4.29502">
        <ele>105.88</ele>
        <time>2017-07-30T07:11:05Z</time>
      </trkpt>
      <trkpt lat="50.65328" lon="4.29498">
        <ele>103.96</ele>
        <time>2017-07-30T07:11:07Z</time>
      </trkpt>
      <trkpt lat="50.65325" lon="4.29489">
        <ele>102.52</ele>
        <time>2017-07-30T07:11:12Z</time>
      </trkpt>
      <trkpt lat="50.6532" lon="4.29479">
        <ele>103.48</ele>
        <time>2017-07-30T07:11:20Z</time>
      </trkpt>
      <trkpt lat="50.65318" lon="4.29477">
        <ele>101.56</ele>
        <time>2017-07-30T07:11:22Z</time>
      </trkpt>
      <trkpt lat="50.65305" lon="4.29457">
        <ele>98.67</ele>
        <time>2017-07-30T07:11:39Z</time>
      </trkpt>
      <trkpt lat="50.65303" lon="4.29454">
        <ele>98.67</ele>
        <time>2017-07-30T07:11:41Z</time>
      </trkpt>
      <trkpt lat="50.653" lon="4.29451">
        <ele>98.67</ele>
        <time>2017-07-30T07:11:44Z</time>
      </trkpt>
      <trkpt lat="50.65296" lon="4.29448">
        <ele>96.75</ele>
        <time>2017-07-30T07:11:47Z</time>
      </trkpt>
      <trkpt lat="50.65283" lon="4.29431">
        <ele>92.9</ele>
        <time>2017-07-30T07:12:03Z</time>
      </trkpt>
      <trkpt lat="50.65282" lon="4.2943">
        <ele>92.9</ele>
        <time>2017-07-30T07:12:04Z</time>
      </trkpt>
      <trkpt lat="50.65263" lon="4.29406">
        <ele>91.46</ele>
        <time>2017-07-30T07:12:19Z</time>
      </trkpt>
      <trkpt lat="50.65243" lon="4.29388">
        <ele>93.39</ele>
        <time>2017-07-30T07:12:35Z</time>
      </trkpt>
      <trkpt lat="50.65242" lon="4.29385">
        <ele>91.94</ele>
        <time>2017-07-30T07:12:37Z</time>
      </trkpt>
      <trkpt lat="50.65242" lon="4.29382">
        <ele>91.94</ele>
        <time>2017-07-30T07:12:38Z</time>
      </trkpt>
      <trkpt lat="50.65242" lon="4.2936">
        <ele>92.9</ele>
        <time>2017-07-30T07:12:48Z</time>
      </trkpt>
      <trkpt lat="50.65248" lon="4.29315">
        <ele>90.5</ele>
        <time>2017-07-30T07:13:07Z</time>
      </trkpt>
      <trkpt lat="50.6525" lon="4.29304">
        <ele>91.94</ele>
        <time>2017-07-30T07:13:12Z</time>
      </trkpt>
      <trkpt lat="50.65252" lon="4.29297">
        <ele>90.5</ele>
        <time>2017-07-30T07:13:16Z</time>
      </trkpt>
      <trkpt lat="50.65258" lon="4.29273">
        <ele>90.5</ele>
        <time>2017-07-30T07:13:28Z</time>
      </trkpt>
      <trkpt lat="50.65265" lon="4.29254">
        <ele>89.54</ele>
        <time>2017-07-30T07:13:38Z</time>
      </trkpt>
      <trkpt lat="50.65281" lon="4.29226">
        <ele>90.5</ele>
        <time>2017-07-30T07:13:55Z</time>
      </trkpt>
      <trkpt lat="50.65291" lon="4.29207">
        <ele>89.54</ele>
        <time>2017-07-30T07:14:07Z</time>
      </trkpt>
      <trkpt lat="50.65294" lon="4.292">
        <ele>90.98</ele>
        <time>2017-07-30T07:14:11Z</time>
      </trkpt>
      <trkpt lat="50.65306" lon="4.29182">
        <ele>90.98</ele>
        <time>2017-07-30T07:14:24Z</time>
      </trkpt>
      <trkpt lat="50.6531" lon="4.29174">
        <ele>90.02</ele>
        <time>2017-07-30T07:14:29Z</time>
      </trkpt>
      <trkpt lat="50.65316" lon="4.29162">
        <ele>91.46</ele>
        <time>2017-07-30T07:14:36Z</time>
      </trkpt>
      <trkpt lat="50.65332" lon="4.29128">
        <ele>91.46</ele>
        <time>2017-07-30T07:14:57Z</time>
      </trkpt>
      <trkpt lat="50.65346" lon="4.29105">
        <ele>88.1</ele>
        <time>2017-07-30T07:15:11Z</time>
      </trkpt>
      <trkpt lat="50.65352" lon="4.29097">
        <ele>90.02</ele>
        <time>2017-07-30T07:15:16Z</time>
      </trkpt>
      <trkpt lat="50.65357" lon="4.29091">
        <ele>89.06</ele>
        <time>2017-07-30T07:15:20Z</time>
      </trkpt>
      <trkpt lat="50.65368" lon="4.29072">
        <ele>90.5</ele>
        <time>2017-07-30T07:15:32Z</time>
      </trkpt>
      <trkpt lat="50.65372" lon="4.29067">
        <ele>89.54</ele>
        <time>2017-07-30T07:15:36Z</time>
      </trkpt>
      <trkpt lat="50.65377" lon="4.29054">
        <ele>90.5</ele>
        <time>2017-07-30T07:15:43Z</time>
      </trkpt>
      <trkpt lat="50.65381" lon="4.29047">
        <ele>89.06</ele>
        <time>2017-07-30T07:15:47Z</time>
      </trkpt>
      <trkpt lat="50.65383" lon="4.29045">
        <ele>90.02</ele>
        <time>2017-07-30T07:15:49Z</time>
      </trkpt>
      <trkpt lat="50.65391" lon="4.29034">
        <ele>89.06</ele>
        <time>2017-07-30T07:15:56Z</time>
      </trkpt>
      <trkpt lat="50.65403" lon="4.2901">
        <ele>88.58</ele>
        <time>2017-07-30T07:16:10Z</time>
      </trkpt>
      <trkpt lat="50.65407" lon="4.29002">
        <ele>89.54</ele>
        <time>2017-07-30T07:16:15Z</time>
      </trkpt>
      <trkpt lat="50.65419" lon="4.2897">
        <ele>89.06</ele>
        <time>2017-07-30T07:16:34Z</time>
      </trkpt>
      <trkpt lat="50.6542" lon="4.28968">
        <ele>89.54</ele>
        <time>2017-07-30T07:16:35Z</time>
      </trkpt>
      <trkpt lat="50.65428" lon="4.2895">
        <ele>89.06</ele>
        <time>2017-07-30T07:16:45Z</time>
      </trkpt>
      <trkpt lat="50.65448" lon="4.28952">
        <ele>89.54</ele>
        <time>2017-07-30T07:17:01Z</time>
      </trkpt>
      <trkpt lat="50.65451" lon="4.28952">
        <ele>88.1</ele>
        <time>2017-07-30T07:17:03Z</time>
      </trkpt>
      <trkpt lat="50.65455" lon="4.2895">
        <ele>89.54</ele>
        <time>2017-07-30T07:17:08Z</time>
      </trkpt>
      <trkpt lat="50.65462" lon="4.28942">
        <ele>90.02</ele>
        <time>2017-07-30T07:17:14Z</time>
      </trkpt>
      <trkpt lat="50.65464" lon="4.28933">
        <ele>88.1</ele>
        <time>2017-07-30T07:17:19Z</time>
      </trkpt>
      <trkpt lat="50.65463" lon="4.28928">
        <ele>90.02</ele>
        <time>2017-07-30T07:17:21Z</time>
      </trkpt>
      <trkpt lat="50.65462" lon="4.28917">
        <ele>88.58</ele>
        <time>2017-07-30T07:17:26Z</time>
      </trkpt>
      <trkpt lat="50.65463" lon="4.28895">
        <ele>89.54</ele>
        <time>2017-07-30T07:17:37Z</time>
      </trkpt>
      <trkpt lat="50.65463" lon="4.28885">
        <ele>88.1</ele>
        <time>2017-07-30T07:17:41Z</time>
      </trkpt>
      <trkpt lat="50.65464" lon="4.28879">
        <ele>89.54</ele>
        <time>2017-07-30T07:17:44Z</time>
      </trkpt>
      <trkpt lat="50.65462" lon="4.28854">
        <ele>88.58</ele>
        <time>2017-07-30T07:17:57Z</time>
      </trkpt>
      <trkpt lat="50.65459" lon="4.28838">
        <ele>87.14</ele>
        <time>2017-07-30T07:18:07Z</time>
      </trkpt>
      <trkpt lat="50.65458" lon="4.2883">
        <ele>89.06</ele>
        <time>2017-07-30T07:18:11Z</time>
      </trkpt>
      <trkpt lat="50.65461" lon="4.28806">
        <ele>87.62</ele>
        <time>2017-07-30T07:18:23Z</time>
      </trkpt>
      <trkpt lat="50.65464" lon="4.28783">
        <ele>89.54</ele>
        <time>2017-07-30T07:18:35Z</time>
      </trkpt>
      <trkpt lat="50.65466" lon="4.28748">
        <ele>88.1</ele>
        <time>2017-07-30T07:18:49Z</time>
      </trkpt>
      <trkpt lat="50.65465" lon="4.28733">
        <ele>87.14</ele>
        <time>2017-07-30T07:18:58Z</time>
      </trkpt>
      <trkpt lat="50.65464" lon="4.28722">
        <ele>88.58</ele>
        <time>2017-07-30T07:19:03Z</time>
      </trkpt>
      <trkpt lat="50.65464" lon="4.28714">
        <ele>87.14</ele>
        <time>2017-07-30T07:19:06Z</time>
      </trkpt>
      <trkpt lat="50.65462" lon="4.28679">
        <ele>89.06</ele>
        <time>2017-07-30T07:19:21Z</time>
      </trkpt>
      <trkpt lat="50.65461" lon="4.28673">
        <ele>87.62</ele>
        <time>2017-07-30T07:19:24Z</time>
      </trkpt>
      <trkpt lat="50.6546" lon="4.28664">
        <ele>89.06</ele>
        <time>2017-07-30T07:19:29Z</time>
      </trkpt>
      <trkpt lat="50.65459" lon="4.28661">
        <ele>87.62</ele>
        <time>2017-07-30T07:19:31Z</time>
      </trkpt>
      <trkpt lat="50.65458" lon="4.28655">
        <ele>86.18</ele>
        <time>2017-07-30T07:19:34Z</time>
      </trkpt>
      <trkpt lat="50.65458" lon="4.28651">
        <ele>88.58</ele>
        <time>2017-07-30T07:19:36Z</time>
      </trkpt>
      <trkpt lat="50.65453" lon="4.28628">
        <ele>86.66</ele>
        <time>2017-07-30T07:19:46Z</time>
      </trkpt>
      <trkpt lat="50.65451" lon="4.28619">
        <ele>86.66</ele>
        <time>2017-07-30T07:19:51Z</time>
      </trkpt>
      <trkpt lat="50.65449" lon="4.28615">
        <ele>88.58</ele>
        <time>2017-07-30T07:19:56Z</time>
      </trkpt>
      <trkpt lat="50.65447" lon="4.2861">
        <ele>87.14</ele>
        <time>2017-07-30T07:19:59Z</time>
      </trkpt>
      <trkpt lat="50.65441" lon="4.28589">
        <ele>87.14</ele>
        <time>2017-07-30T07:20:09Z</time>
      </trkpt>
      <trkpt lat="50.6544" lon="4.28584">
        <ele>88.58</ele>
        <time>2017-07-30T07:20:12Z</time>
      </trkpt>
      <trkpt lat="50.65437" lon="4.28572">
        <ele>87.14</ele>
        <time>2017-07-30T07:20:18Z</time>
      </trkpt>
      <trkpt lat="50.65422" lon="4.28543">
        <ele>86.18</ele>
        <time>2017-07-30T07:20:36Z</time>
      </trkpt>
      <trkpt lat="50.65413" lon="4.28529">
        <ele>85.69</ele>
        <time>2017-07-30T07:20:45Z</time>
      </trkpt>
      <trkpt lat="50.6541" lon="4.28521">
        <ele>88.1</ele>
        <time>2017-07-30T07:20:49Z</time>
      </trkpt>
      <trkpt lat="50.65407" lon="4.28513">
        <ele>84.73</ele>
        <time>2017-07-30T07:20:53Z</time>
      </trkpt>
      <trkpt lat="50.65402" lon="4.28496">
        <ele>86.18</ele>
        <time>2017-07-30T07:21:00Z</time>
      </trkpt>
      <trkpt lat="50.65398" lon="4.28492">
        <ele>88.1</ele>
        <time>2017-07-30T07:21:04Z</time>
      </trkpt>
      <trkpt lat="50.65397" lon="4.2849">
        <ele>86.66</ele>
        <time>2017-07-30T07:21:06Z</time>
      </trkpt>
      <trkpt lat="50.65391" lon="4.28482">
        <ele>87.62</ele>
        <time>2017-07-30T07:21:12Z</time>
      </trkpt>
      <trkpt lat="50.65389" lon="4.28479">
        <ele>86.18</ele>
        <time>2017-07-30T07:21:14Z</time>
      </trkpt>
      <trkpt lat="50.65387" lon="4.28475">
        <ele>88.1</ele>
        <time>2017-07-30T07:21:17Z</time>
      </trkpt>
      <trkpt lat="50.65386" lon="4.2847">
        <ele>85.69</ele>
        <time>2017-07-30T07:21:20Z</time>
      </trkpt>
      <trkpt lat="50.65386" lon="4.28462">
        <ele>87.14</ele>
        <time>2017-07-30T07:21:23Z</time>
      </trkpt>
      <trkpt lat="50.6539" lon="4.28453">
        <ele>87.62</ele>
        <time>2017-07-30T07:21:27Z</time>
      </trkpt>
      <trkpt lat="50.65393" lon="4.28448">
        <ele>86.18</ele>
        <time>2017-07-30T07:21:30Z</time>
      </trkpt>
      <trkpt lat="50.65398" lon="4.28441">
        <ele>87.62</ele>
        <time>2017-07-30T07:21:34Z</time>
      </trkpt>
      <trkpt lat="50.65402" lon="4.28439">
        <ele>86.18</ele>
        <time>2017-07-30T07:21:37Z</time>
      </trkpt>
      <trkpt lat="50.65405" lon="4.28435">
        <ele>88.58</ele>
        <time>2017-07-30T07:21:40Z</time>
      </trkpt>
      <trkpt lat="50.65419" lon="4.2842">
        <ele>89.06</ele>
        <time>2017-07-30T07:21:57Z</time>
      </trkpt>
      <trkpt lat="50.65421" lon="4.28419">
        <ele>90.98</ele>
        <time>2017-07-30T07:21:59Z</time>
      </trkpt>
      <trkpt lat="50.65423" lon="4.28418">
        <ele>90.02</ele>
        <time>2017-07-30T07:22:01Z</time>
      </trkpt>
      <trkpt lat="50.65426" lon="4.28416">
        <ele>91.94</ele>
        <time>2017-07-30T07:22:04Z</time>
      </trkpt>
      <trkpt lat="50.65438" lon="4.28408">
        <ele>91.94</ele>
        <time>2017-07-30T07:22:16Z</time>
      </trkpt>
      <trkpt lat="50.6544" lon="4.28407">
        <ele>93.87</ele>
        <time>2017-07-30T07:22:18Z</time>
      </trkpt>
      <trkpt lat="50.6546" lon="4.28391">
        <ele>94.83</ele>
        <time>2017-07-30T07:22:32Z</time>
      </trkpt>
      <trkpt lat="50.65475" lon="4.2838">
        <ele>93.87</ele>
        <time>2017-07-30T07:22:45Z</time>
      </trkpt>
      <trkpt lat="50.65479" lon="4.28378">
        <ele>96.75</ele>
        <time>2017-07-30T07:22:48Z</time>
      </trkpt>
      <trkpt lat="50.65481" lon="4.28376">
        <ele>95.31</ele>
        <time>2017-07-30T07:22:50Z</time>
      </trkpt>
      <trkpt lat="50.65484" lon="4.28374">
        <ele>96.27</ele>
        <time>2017-07-30T07:22:52Z</time>
      </trkpt>
      <trkpt lat="50.65492" lon="4.28371">
        <ele>98.19</ele>
        <time>2017-07-30T07:22:58Z</time>
      </trkpt>
      <trkpt lat="50.65509" lon="4.28366">
        <ele>99.15</ele>
        <time>2017-07-30T07:23:11Z</time>
      </trkpt>
      <trkpt lat="50.65512" lon="4.2835">
        <ele>99.15</ele>
        <time>2017-07-30T07:23:20Z</time>
      </trkpt>
      <trkpt lat="50.6552" lon="4.28331">
        <ele>100.11</ele>
        <time>2017-07-30T07:23:31Z</time>
      </trkpt>
      <trkpt lat="50.65524" lon="4.28329">
        <ele>99.15</ele>
        <time>2017-07-30T07:23:34Z</time>
      </trkpt>
      <trkpt lat="50.65526" lon="4.28327">
        <ele>100.6</ele>
        <time>2017-07-30T07:23:36Z</time>
      </trkpt>
      <trkpt lat="50.6553" lon="4.28321">
        <ele>100.6</ele>
        <time>2017-07-30T07:23:42Z</time>
      </trkpt>
      <trkpt lat="50.65549" lon="4.28307">
        <ele>103</ele>
        <time>2017-07-30T07:23:59Z</time>
      </trkpt>
      <trkpt lat="50.65552" lon="4.28306">
        <ele>101.08</ele>
        <time>2017-07-30T07:24:01Z</time>
      </trkpt>
      <trkpt lat="50.65554" lon="4.28305">
        <ele>102.52</ele>
        <time>2017-07-30T07:24:03Z</time>
      </trkpt>
      <trkpt lat="50.65574" lon="4.28298">
        <ele>104.44</ele>
        <time>2017-07-30T07:24:19Z</time>
      </trkpt>
      <trkpt lat="50.65588" lon="4.28283">
        <ele>105.4</ele>
        <time>2017-07-30T07:24:31Z</time>
      </trkpt>
      <trkpt lat="50.6559" lon="4.28279">
        <ele>103.96</ele>
        <time>2017-07-30T07:24:34Z</time>
      </trkpt>
      <trkpt lat="50.65591" lon="4.28277">
        <ele>105.4</ele>
        <time>2017-07-30T07:24:36Z</time>
      </trkpt>
      <trkpt lat="50.65608" lon="4.28261">
        <ele>108.29</ele>
        <time>2017-07-30T07:24:53Z</time>
      </trkpt>
      <trkpt lat="50.65609" lon="4.28261">
        <ele>106.84</ele>
        <time>2017-07-30T07:24:55Z</time>
      </trkpt>
      <trkpt lat="50.65611" lon="4.28261">
        <ele>108.29</ele>
        <time>2017-07-30T07:24:58Z</time>
      </trkpt>
      <trkpt lat="50.65626" lon="4.28252">
        <ele>109.25</ele>
        <time>2017-07-30T07:25:10Z</time>
      </trkpt>
      <trkpt lat="50.65641" lon="4.2823">
        <ele>111.17</ele>
        <time>2017-07-30T07:25:25Z</time>
      </trkpt>
      <trkpt lat="50.65644" lon="4.28226">
        <ele>109.25</ele>
        <time>2017-07-30T07:25:28Z</time>
      </trkpt>
      <trkpt lat="50.65654" lon="4.28219">
        <ele>112.13</ele>
        <time>2017-07-30T07:25:37Z</time>
      </trkpt>
      <trkpt lat="50.65655" lon="4.28218">
        <ele>112.13</ele>
        <time>2017-07-30T07:25:38Z</time>
      </trkpt>
      <trkpt lat="50.6567" lon="4.28208">
        <ele>111.65</ele>
        <time>2017-07-30T07:25:52Z</time>
      </trkpt>
      <trkpt lat="50.65672" lon="4.28206">
        <ele>114.53</ele>
        <time>2017-07-30T07:25:54Z</time>
      </trkpt>
      <trkpt lat="50.65675" lon="4.28204">
        <ele>113.09</ele>
        <time>2017-07-30T07:25:56Z</time>
      </trkpt>
      <trkpt lat="50.65677" lon="4.28203">
        <ele>114.05</ele>
        <time>2017-07-30T07:25:58Z</time>
      </trkpt>
      <trkpt lat="50.6568" lon="4.28199">
        <ele>114.53</ele>
        <time>2017-07-30T07:26:03Z</time>
      </trkpt>
      <trkpt lat="50.65692" lon="4.28192">
        <ele>116.46</ele>
        <time>2017-07-30T07:26:12Z</time>
      </trkpt>
      <trkpt lat="50.65698" lon="4.28189">
        <ele>114.53</ele>
        <time>2017-07-30T07:26:17Z</time>
      </trkpt>
      <trkpt lat="50.65702" lon="4.28186">
        <ele>116.46</ele>
        <time>2017-07-30T07:26:21Z</time>
      </trkpt>
      <trkpt lat="50.6571" lon="4.28181">
        <ele>117.42</ele>
        <time>2017-07-30T07:26:29Z</time>
      </trkpt>
      <trkpt lat="50.65723" lon="4.28175">
        <ele>118.86</ele>
        <time>2017-07-30T07:26:37Z</time>
      </trkpt>
      <trkpt lat="50.65734" lon="4.28169">
        <ele>119.82</ele>
        <time>2017-07-30T07:26:43Z</time>
      </trkpt>
      <trkpt lat="50.6574" lon="4.28165">
        <ele>117.9</ele>
        <time>2017-07-30T07:26:49Z</time>
      </trkpt>
      <trkpt lat="50.65741" lon="4.28165">
        <ele>118.86</ele>
        <time>2017-07-30T07:26:50Z</time>
      </trkpt>
      <trkpt lat="50.65744" lon="4.28165">
        <ele>119.82</ele>
        <time>2017-07-30T07:26:52Z</time>
      </trkpt>
      <trkpt lat="50.65768" lon="4.28152">
        <ele>122.22</ele>
        <time>2017-07-30T07:27:11Z</time>
      </trkpt>
      <trkpt lat="50.65774" lon="4.28149">
        <ele>120.78</ele>
        <time>2017-07-30T07:27:16Z</time>
      </trkpt>
      <trkpt lat="50.65797" lon="4.28136">
        <ele>122.71</ele>
        <time>2017-07-30T07:27:34Z</time>
      </trkpt>
      <trkpt lat="50.65802" lon="4.28131">
        <ele>124.15</ele>
        <time>2017-07-30T07:27:38Z</time>
      </trkpt>
      <trkpt lat="50.65803" lon="4.28128">
        <ele>125.11</ele>
        <time>2017-07-30T07:27:40Z</time>
      </trkpt>
      <trkpt lat="50.65819" lon="4.28115">
        <ele>124.63</ele>
        <time>2017-07-30T07:27:54Z</time>
      </trkpt>
      <trkpt lat="50.65843" lon="4.28105">
        <ele>124.15</ele>
        <time>2017-07-30T07:28:12Z</time>
      </trkpt>
      <trkpt lat="50.6586" lon="4.28098">
        <ele>125.59</ele>
        <time>2017-07-30T07:28:27Z</time>
      </trkpt>
      <trkpt lat="50.65863" lon="4.28098">
        <ele>125.59</ele>
        <time>2017-07-30T07:28:29Z</time>
      </trkpt>
      <trkpt lat="50.65868" lon="4.28096">
        <ele>126.55</ele>
        <time>2017-07-30T07:28:32Z</time>
      </trkpt>
      <trkpt lat="50.65873" lon="4.28093">
        <ele>124.15</ele>
        <time>2017-07-30T07:28:37Z</time>
      </trkpt>
      <trkpt lat="50.65876" lon="4.28091">
        <ele>125.59</ele>
        <time>2017-07-30T07:28:39Z</time>
      </trkpt>
      <trkpt lat="50.65897" lon="4.28078">
        <ele>125.59</ele>
        <time>2017-07-30T07:28:56Z</time>
      </trkpt>
      <trkpt lat="50.65901" lon="4.28074">
        <ele>124.15</ele>
        <time>2017-07-30T07:28:59Z</time>
      </trkpt>
      <trkpt lat="50.65911" lon="4.28064">
        <ele>126.55</ele>
        <time>2017-07-30T07:29:08Z</time>
      </trkpt>
      <trkpt lat="50.65929" lon="4.28046">
        <ele>126.07</ele>
        <time>2017-07-30T07:29:20Z</time>
      </trkpt>
      <trkpt lat="50.6593" lon="4.28044">
        <ele>126.07</ele>
        <time>2017-07-30T07:29:21Z</time>
      </trkpt>
      <trkpt lat="50.65932" lon="4.28041">
        <ele>124.63</ele>
        <time>2017-07-30T07:29:23Z</time>
      </trkpt>
      <trkpt lat="50.65934" lon="4.28037">
        <ele>126.07</ele>
        <time>2017-07-30T07:29:25Z</time>
      </trkpt>
      <trkpt lat="50.6594" lon="4.28029">
        <ele>124.63</ele>
        <time>2017-07-30T07:29:32Z</time>
      </trkpt>
      <trkpt lat="50.65954" lon="4.2801">
        <ele>126.07</ele>
        <time>2017-07-30T07:29:52Z</time>
      </trkpt>
      <trkpt lat="50.65955" lon="4.28008">
        <ele>126.07</ele>
        <time>2017-07-30T07:30:24Z</time>
      </trkpt>
      <trkpt lat="50.65959" lon="4.28011">
        <ele>125.11</ele>
        <time>2017-07-30T07:30:38Z</time>
      </trkpt>
      <trkpt lat="50.65963" lon="4.28002">
        <ele>126.07</ele>
        <time>2017-07-30T07:30:43Z</time>
      </trkpt>
      <trkpt lat="50.65967" lon="4.27995">
        <ele>127.51</ele>
        <time>2017-07-30T07:30:47Z</time>
      </trkpt>
      <trkpt lat="50.6597" lon="4.2799">
        <ele>124.63</ele>
        <time>2017-07-30T07:30:50Z</time>
      </trkpt>
      <trkpt lat="50.65985" lon="4.27968">
        <ele>127.03</ele>
        <time>2017-07-30T07:31:07Z</time>
      </trkpt>
      <trkpt lat="50.65985" lon="4.27967">
        <ele>127.03</ele>
        <time>2017-07-30T07:31:08Z</time>
      </trkpt>
      <trkpt lat="50.65987" lon="4.27964">
        <ele>125.11</ele>
        <time>2017-07-30T07:31:10Z</time>
      </trkpt>
      <trkpt lat="50.65997" lon="4.27946">
        <ele>127.99</ele>
        <time>2017-07-30T07:31:23Z</time>
      </trkpt>
      <trkpt lat="50.65997" lon="4.27944">
        <ele>127.99</ele>
        <time>2017-07-30T07:31:24Z</time>
      </trkpt>
      <trkpt lat="50.66011" lon="4.27914">
        <ele>125.11</ele>
        <time>2017-07-30T07:31:40Z</time>
      </trkpt>
      <trkpt lat="50.66017" lon="4.27912">
        <ele>127.03</ele>
        <time>2017-07-30T07:31:44Z</time>
      </trkpt>
      <trkpt lat="50.66022" lon="4.27918">
        <ele>125.59</ele>
        <time>2017-07-30T07:31:48Z</time>
      </trkpt>
      <trkpt lat="50.66027" lon="4.27921">
        <ele>127.03</ele>
        <time>2017-07-30T07:31:51Z</time>
      </trkpt>
      <trkpt lat="50.6603" lon="4.27923">
        <ele>124.63</ele>
        <time>2017-07-30T07:31:53Z</time>
      </trkpt>
      <trkpt lat="50.66036" lon="4.27928">
        <ele>124.63</ele>
        <time>2017-07-30T07:31:59Z</time>
      </trkpt>
      <trkpt lat="50.66054" lon="4.27937">
        <ele>125.11</ele>
        <time>2017-07-30T07:32:13Z</time>
      </trkpt>
      <trkpt lat="50.66057" lon="4.27939">
        <ele>126.55</ele>
        <time>2017-07-30T07:32:15Z</time>
      </trkpt>
      <trkpt lat="50.66074" lon="4.27956">
        <ele>126.07</ele>
        <time>2017-07-30T07:32:29Z</time>
      </trkpt>
      <trkpt lat="50.66091" lon="4.27966">
        <ele>126.07</ele>
        <time>2017-07-30T07:32:43Z</time>
      </trkpt>
      <trkpt lat="50.66099" lon="4.27971">
        <ele>127.51</ele>
        <time>2017-07-30T07:32:48Z</time>
      </trkpt>
      <trkpt lat="50.66102" lon="4.27974">
        <ele>129.43</ele>
        <time>2017-07-30T07:32:50Z</time>
      </trkpt>
      <trkpt lat="50.66105" lon="4.27976">
        <ele>127.99</ele>
        <time>2017-07-30T07:32:52Z</time>
      </trkpt>
      <trkpt lat="50.66129" lon="4.27995">
        <ele>129.92</ele>
        <time>2017-07-30T07:33:12Z</time>
      </trkpt>
      <trkpt lat="50.66135" lon="4.27993">
        <ele>128.95</ele>
        <time>2017-07-30T07:33:20Z</time>
      </trkpt>
      <trkpt lat="50.66138" lon="4.27989">
        <ele>128.95</ele>
        <time>2017-07-30T07:33:24Z</time>
      </trkpt>
      <trkpt lat="50.66149" lon="4.27977">
        <ele>131.84</ele>
        <time>2017-07-30T07:33:34Z</time>
      </trkpt>
      <trkpt lat="50.66166" lon="4.27961">
        <ele>133.76</ele>
        <time>2017-07-30T07:33:50Z</time>
      </trkpt>
      <trkpt lat="50.66168" lon="4.27959">
        <ele>132.32</ele>
        <time>2017-07-30T07:33:52Z</time>
      </trkpt>
      <trkpt lat="50.66173" lon="4.27952">
        <ele>134.72</ele>
        <time>2017-07-30T07:33:58Z</time>
      </trkpt>
      <trkpt lat="50.66191" lon="4.2794">
        <ele>134.24</ele>
        <time>2017-07-30T07:34:15Z</time>
      </trkpt>
      <trkpt lat="50.66194" lon="4.27938">
        <ele>136.16</ele>
        <time>2017-07-30T07:34:18Z</time>
      </trkpt>
      <trkpt lat="50.66214" lon="4.27921">
        <ele>135.68</ele>
        <time>2017-07-30T07:34:33Z</time>
      </trkpt>
      <trkpt lat="50.6622" lon="4.27916">
        <ele>138.09</ele>
        <time>2017-07-30T07:34:37Z</time>
      </trkpt>
      <trkpt lat="50.66228" lon="4.27908">
        <ele>139.05</ele>
        <time>2017-07-30T07:34:43Z</time>
      </trkpt>
      <trkpt lat="50.66246" lon="4.279">
        <ele>139.05</ele>
        <time>2017-07-30T07:34:55Z</time>
      </trkpt>
      <trkpt lat="50.66252" lon="4.279">
        <ele>140.49</ele>
        <time>2017-07-30T07:35:00Z</time>
      </trkpt>
      <trkpt lat="50.66271" lon="4.27898">
        <ele>142.41</ele>
        <time>2017-07-30T07:35:13Z</time>
      </trkpt>
      <trkpt lat="50.66278" lon="4.27896">
        <ele>140.49</ele>
        <time>2017-07-30T07:35:18Z</time>
      </trkpt>
      <trkpt lat="50.66285" lon="4.27897">
        <ele>142.41</ele>
        <time>2017-07-30T07:35:22Z</time>
      </trkpt>
      <trkpt lat="50.66291" lon="4.27901">
        <ele>140.97</ele>
        <time>2017-07-30T07:35:26Z</time>
      </trkpt>
      <trkpt lat="50.66297" lon="4.27901">
        <ele>142.89</ele>
        <time>2017-07-30T07:35:31Z</time>
      </trkpt>
      <trkpt lat="50.66318" lon="4.279">
        <ele>142.41</ele>
        <time>2017-07-30T07:35:48Z</time>
      </trkpt>
      <trkpt lat="50.66327" lon="4.27895">
        <ele>142.41</ele>
        <time>2017-07-30T07:35:55Z</time>
      </trkpt>
      <trkpt lat="50.66329" lon="4.2789">
        <ele>144.82</ele>
        <time>2017-07-30T07:35:58Z</time>
      </trkpt>
      <trkpt lat="50.66329" lon="4.27883">
        <ele>143.37</ele>
        <time>2017-07-30T07:36:02Z</time>
      </trkpt>
      <trkpt lat="50.66329" lon="4.27861">
        <ele>146.26</ele>
        <time>2017-07-30T07:36:12Z</time>
      </trkpt>
      <trkpt lat="50.6633" lon="4.27845">
        <ele>144.34</ele>
        <time>2017-07-30T07:36:19Z</time>
      </trkpt>
      <trkpt lat="50.66332" lon="4.27831">
        <ele>146.26</ele>
        <time>2017-07-30T07:36:26Z</time>
      </trkpt>
      <trkpt lat="50.66332" lon="4.27827">
        <ele>144.82</ele>
        <time>2017-07-30T07:36:28Z</time>
      </trkpt>
      <trkpt lat="50.66332" lon="4.27804">
        <ele>145.78</ele>
        <time>2017-07-30T07:36:39Z</time>
      </trkpt>
      <trkpt lat="50.66332" lon="4.27796">
        <ele>143.85</ele>
        <time>2017-07-30T07:36:43Z</time>
      </trkpt>
      <trkpt lat="50.66332" lon="4.27784">
        <ele>145.3</ele>
        <time>2017-07-30T07:36:48Z</time>
      </trkpt>
      <trkpt lat="50.66332" lon="4.27747">
        <ele>145.3</ele>
        <time>2017-07-30T07:37:04Z</time>
      </trkpt>
      <trkpt lat="50.66333" lon="4.2773">
        <ele>146.74</ele>
        <time>2017-07-30T07:37:11Z</time>
      </trkpt>
      <trkpt lat="50.66333" lon="4.27726">
        <ele>144.82</ele>
        <time>2017-07-30T07:37:13Z</time>
      </trkpt>
      <trkpt lat="50.66331" lon="4.27707">
        <ele>146.26</ele>
        <time>2017-07-30T07:37:22Z</time>
      </trkpt>
      <trkpt lat="50.66331" lon="4.27703">
        <ele>144.82</ele>
        <time>2017-07-30T07:37:24Z</time>
      </trkpt>
      <trkpt lat="50.66329" lon="4.27679">
        <ele>143.85</ele>
        <time>2017-07-30T07:37:37Z</time>
      </trkpt>
      <trkpt lat="50.6633" lon="4.27674">
        <ele>142.41</ele>
        <time>2017-07-30T07:37:39Z</time>
      </trkpt>
      <trkpt lat="50.66332" lon="4.27662">
        <ele>144.82</ele>
        <time>2017-07-30T07:37:44Z</time>
      </trkpt>
      <trkpt lat="50.66332" lon="4.27657">
        <ele>143.37</ele>
        <time>2017-07-30T07:37:46Z</time>
      </trkpt>
      <trkpt lat="50.66332" lon="4.2765">
        <ele>142.41</ele>
        <time>2017-07-30T07:37:49Z</time>
      </trkpt>
      <trkpt lat="50.66331" lon="4.27636">
        <ele>143.37</ele>
        <time>2017-07-30T07:37:55Z</time>
      </trkpt>
      <trkpt lat="50.6633" lon="4.27624">
        <ele>141.45</ele>
        <time>2017-07-30T07:37:59Z</time>
      </trkpt>
      <trkpt lat="50.66331" lon="4.27576">
        <ele>141.45</ele>
        <time>2017-07-30T07:38:20Z</time>
      </trkpt>
      <trkpt lat="50.66331" lon="4.27574">
        <ele>141.45</ele>
        <time>2017-07-30T07:38:21Z</time>
      </trkpt>
      <trkpt lat="50.66331" lon="4.27548">
        <ele>141.45</ele>
        <time>2017-07-30T07:38:34Z</time>
      </trkpt>
      <trkpt lat="50.66332" lon="4.27531">
        <ele>142.41</ele>
        <time>2017-07-30T07:38:42Z</time>
      </trkpt>
      <trkpt lat="50.66334" lon="4.27523">
        <ele>139.05</ele>
        <time>2017-07-30T07:38:46Z</time>
      </trkpt>
      <trkpt lat="50.66335" lon="4.27521">
        <ele>139.05</ele>
        <time>2017-07-30T07:38:47Z</time>
      </trkpt>
      <trkpt lat="50.66341" lon="4.27519">
        <ele>140.01</ele>
        <time>2017-07-30T07:38:53Z</time>
      </trkpt>
      <trkpt lat="50.66351" lon="4.27525">
        <ele>138.09</ele>
        <time>2017-07-30T07:39:02Z</time>
      </trkpt>
      <trkpt lat="50.66352" lon="4.27523">
        <ele>139.53</ele>
        <time>2017-07-30T07:39:04Z</time>
      </trkpt>
      <trkpt lat="50.66352" lon="4.27518">
        <ele>138.09</ele>
        <time>2017-07-30T07:39:08Z</time>
      </trkpt>
      <trkpt lat="50.66352" lon="4.27515">
        <ele>139.53</ele>
        <time>2017-07-30T07:39:10Z</time>
      </trkpt>
      <trkpt lat="50.66353" lon="4.27514">
        <ele>140.01</ele>
        <time>2017-07-30T07:39:11Z</time>
      </trkpt>
      <trkpt lat="50.66354" lon="4.27504">
        <ele>137.13</ele>
        <time>2017-07-30T07:39:16Z</time>
      </trkpt>
      <trkpt lat="50.66355" lon="4.27495">
        <ele>138.57</ele>
        <time>2017-07-30T07:39:20Z</time>
      </trkpt>
      <trkpt lat="50.66356" lon="4.27478">
        <ele>137.61</ele>
        <time>2017-07-30T07:39:28Z</time>
      </trkpt>
      <trkpt lat="50.66356" lon="4.27474">
        <ele>139.05</ele>
        <time>2017-07-30T07:39:30Z</time>
      </trkpt>
      <trkpt lat="50.66364" lon="4.27445">
        <ele>137.61</ele>
        <time>2017-07-30T07:39:46Z</time>
      </trkpt>
      <trkpt lat="50.66367" lon="4.27432">
        <ele>137.13</ele>
        <time>2017-07-30T07:39:54Z</time>
      </trkpt>
      <trkpt lat="50.6637" lon="4.27423">
        <ele>135.2</ele>
        <time>2017-07-30T07:40:02Z</time>
      </trkpt>
      <trkpt lat="50.66378" lon="4.27405">
        <ele>136.16</ele>
        <time>2017-07-30T07:40:11Z</time>
      </trkpt>
      <trkpt lat="50.66383" lon="4.2736">
        <ele>135.68</ele>
        <time>2017-07-30T07:40:28Z</time>
      </trkpt>
      <trkpt lat="50.66383" lon="4.2735">
        <ele>134.24</ele>
        <time>2017-07-30T07:40:33Z</time>
      </trkpt>
      <trkpt lat="50.66383" lon="4.27344">
        <ele>136.16</ele>
        <time>2017-07-30T07:40:36Z</time>
      </trkpt>
      <trkpt lat="50.66384" lon="4.2734">
        <ele>133.28</ele>
        <time>2017-07-30T07:40:38Z</time>
      </trkpt>
      <trkpt lat="50.66379" lon="4.27294">
        <ele>134.72</ele>
        <time>2017-07-30T07:40:58Z</time>
      </trkpt>
      <trkpt lat="50.66376" lon="4.27285">
        <ele>136.16</ele>
        <time>2017-07-30T07:41:02Z</time>
      </trkpt>
      <trkpt lat="50.66374" lon="4.27269">
        <ele>136.64</ele>
        <time>2017-07-30T07:41:10Z</time>
      </trkpt>
      <trkpt lat="50.66373" lon="4.27265">
        <ele>135.2</ele>
        <time>2017-07-30T07:41:12Z</time>
      </trkpt>
      <trkpt lat="50.66369" lon="4.2724">
        <ele>134.24</ele>
        <time>2017-07-30T07:41:25Z</time>
      </trkpt>
      <trkpt lat="50.66368" lon="4.27224">
        <ele>135.68</ele>
        <time>2017-07-30T07:41:32Z</time>
      </trkpt>
      <trkpt lat="50.66367" lon="4.27219">
        <ele>134.24</ele>
        <time>2017-07-30T07:41:34Z</time>
      </trkpt>
      <trkpt lat="50.66366" lon="4.27206">
        <ele>135.68</ele>
        <time>2017-07-30T07:41:40Z</time>
      </trkpt>
      <trkpt lat="50.66365" lon="4.27194">
        <ele>134.24</ele>
        <time>2017-07-30T07:41:45Z</time>
      </trkpt>
      <trkpt lat="50.66364" lon="4.27187">
        <ele>135.2</ele>
        <time>2017-07-30T07:41:48Z</time>
      </trkpt>
      <trkpt lat="50.66364" lon="4.27183">
        <ele>134.24</ele>
        <time>2017-07-30T07:41:50Z</time>
      </trkpt>
      <trkpt lat="50.66361" lon="4.27167">
        <ele>135.2</ele>
        <time>2017-07-30T07:41:57Z</time>
      </trkpt>
      <trkpt lat="50.6636" lon="4.27162">
        <ele>133.28</ele>
        <time>2017-07-30T07:41:59Z</time>
      </trkpt>
      <trkpt lat="50.66356" lon="4.27134">
        <ele>134.72</ele>
        <time>2017-07-30T07:42:11Z</time>
      </trkpt>
      <trkpt lat="50.66355" lon="4.2713">
        <ele>132.8</ele>
        <time>2017-07-30T07:42:13Z</time>
      </trkpt>
      <trkpt lat="50.66349" lon="4.27094">
        <ele>134.24</ele>
        <time>2017-07-30T07:42:32Z</time>
      </trkpt>
      <trkpt lat="50.66348" lon="4.2709">
        <ele>135.68</ele>
        <time>2017-07-30T07:42:34Z</time>
      </trkpt>
      <trkpt lat="50.66347" lon="4.27077">
        <ele>133.76</ele>
        <time>2017-07-30T07:42:40Z</time>
      </trkpt>
      <trkpt lat="50.66344" lon="4.27059">
        <ele>134.24</ele>
        <time>2017-07-30T07:42:48Z</time>
      </trkpt>
      <trkpt lat="50.66344" lon="4.27044">
        <ele>133.76</ele>
        <time>2017-07-30T07:42:59Z</time>
      </trkpt>
      <trkpt lat="50.66344" lon="4.2704">
        <ele>132.32</ele>
        <time>2017-07-30T07:43:02Z</time>
      </trkpt>
      <trkpt lat="50.66344" lon="4.27037">
        <ele>133.76</ele>
        <time>2017-07-30T07:43:04Z</time>
      </trkpt>
      <trkpt lat="50.66349" lon="4.27032">
        <ele>133.76</ele>
        <time>2017-07-30T07:43:09Z</time>
      </trkpt>
      <trkpt lat="50.66376" lon="4.27034">
        <ele>134.24</ele>
        <time>2017-07-30T07:43:31Z</time>
      </trkpt>
      <trkpt lat="50.6638" lon="4.27033">
        <ele>132.32</ele>
        <time>2017-07-30T07:43:35Z</time>
      </trkpt>
      <trkpt lat="50.66383" lon="4.27032">
        <ele>134.24</ele>
        <time>2017-07-30T07:43:38Z</time>
      </trkpt>
      <trkpt lat="50.6639" lon="4.27031">
        <ele>132.8</ele>
        <time>2017-07-30T07:43:42Z</time>
      </trkpt>
      <trkpt lat="50.66407" lon="4.27028">
        <ele>133.28</ele>
        <time>2017-07-30T07:43:54Z</time>
      </trkpt>
      <trkpt lat="50.66414" lon="4.27026">
        <ele>131.84</ele>
        <time>2017-07-30T07:43:59Z</time>
      </trkpt>
      <trkpt lat="50.66434" lon="4.27028">
        <ele>129.92</ele>
        <time>2017-07-30T07:44:14Z</time>
      </trkpt>
      <trkpt lat="50.66444" lon="4.27026">
        <ele>128.95</ele>
        <time>2017-07-30T07:44:20Z</time>
      </trkpt>
      <trkpt lat="50.66467" lon="4.27027">
        <ele>125.59</ele>
        <time>2017-07-30T07:44:40Z</time>
      </trkpt>
      <trkpt lat="50.66484" lon="4.27025">
        <ele>123.19</ele>
        <time>2017-07-30T07:44:55Z</time>
      </trkpt>
      <trkpt lat="50.66507" lon="4.27018">
        <ele>119.34</ele>
        <time>2017-07-30T07:45:14Z</time>
      </trkpt>
      <trkpt lat="50.66512" lon="4.27018">
        <ele>120.78</ele>
        <time>2017-07-30T07:45:17Z</time>
      </trkpt>
      <trkpt lat="50.66519" lon="4.27018">
        <ele>119.34</ele>
        <time>2017-07-30T07:45:23Z</time>
      </trkpt>
      <trkpt lat="50.6653" lon="4.27016">
        <ele>117.9</ele>
        <time>2017-07-30T07:45:35Z</time>
      </trkpt>
      <trkpt lat="50.66538" lon="4.27014">
        <ele>115.5</ele>
        <time>2017-07-30T07:45:42Z</time>
      </trkpt>
      <trkpt lat="50.66558" lon="4.27012">
        <ele>112.13</ele>
        <time>2017-07-30T07:45:59Z</time>
      </trkpt>
      <trkpt lat="50.6658" lon="4.27006">
        <ele>110.69</ele>
        <time>2017-07-30T07:46:18Z</time>
      </trkpt>
      <trkpt lat="50.66585" lon="4.27008">
        <ele>109.25</ele>
        <time>2017-07-30T07:46:22Z</time>
      </trkpt>
      <trkpt lat="50.66601" lon="4.27">
        <ele>106.84</ele>
        <time>2017-07-30T07:46:38Z</time>
      </trkpt>
      <trkpt lat="50.66622" lon="4.26986">
        <ele>105.4</ele>
        <time>2017-07-30T07:46:57Z</time>
      </trkpt>
      <trkpt lat="50.6663" lon="4.26972">
        <ele>104.44</ele>
        <time>2017-07-30T07:47:16Z</time>
      </trkpt>
      <trkpt lat="50.66647" lon="4.26949">
        <ele>104.44</ele>
        <time>2017-07-30T07:47:36Z</time>
      </trkpt>
      <trkpt lat="50.66655" lon="4.26937">
        <ele>103.96</ele>
        <time>2017-07-30T07:47:45Z</time>
      </trkpt>
      <trkpt lat="50.6666" lon="4.2693">
        <ele>102.52</ele>
        <time>2017-07-30T07:47:52Z</time>
      </trkpt>
      <trkpt lat="50.66664" lon="4.26926">
        <ele>103.96</ele>
        <time>2017-07-30T07:47:54Z</time>
      </trkpt>
      <trkpt lat="50.66677" lon="4.26917">
        <ele>102.04</ele>
        <time>2017-07-30T07:48:01Z</time>
      </trkpt>
      <trkpt lat="50.66696" lon="4.26915">
        <ele>101.08</ele>
        <time>2017-07-30T07:48:16Z</time>
      </trkpt>
      <trkpt lat="50.66719" lon="4.26922">
        <ele>98.19</ele>
        <time>2017-07-30T07:48:33Z</time>
      </trkpt>
      <trkpt lat="50.66725" lon="4.26922">
        <ele>99.63</ele>
        <time>2017-07-30T07:48:37Z</time>
      </trkpt>
      <trkpt lat="50.66757" lon="4.26923">
        <ele>97.71</ele>
        <time>2017-07-30T07:48:56Z</time>
      </trkpt>
      <trkpt lat="50.66779" lon="4.26919">
        <ele>94.83</ele>
        <time>2017-07-30T07:49:16Z</time>
      </trkpt>
      <trkpt lat="50.66797" lon="4.26913">
        <ele>95.31</ele>
        <time>2017-07-30T07:49:35Z</time>
      </trkpt>
      <trkpt lat="50.66804" lon="4.26907">
        <ele>97.23</ele>
        <time>2017-07-30T07:49:42Z</time>
      </trkpt>
      <trkpt lat="50.66807" lon="4.26905">
        <ele>95.79</ele>
        <time>2017-07-30T07:49:46Z</time>
      </trkpt>
      <trkpt lat="50.66809" lon="4.26902">
        <ele>97.23</ele>
        <time>2017-07-30T07:49:48Z</time>
      </trkpt>
      <trkpt lat="50.66828" lon="4.26874">
        <ele>97.71</ele>
        <time>2017-07-30T07:50:08Z</time>
      </trkpt>
      <trkpt lat="50.66834" lon="4.26867">
        <ele>100.11</ele>
        <time>2017-07-30T07:50:12Z</time>
      </trkpt>
      <trkpt lat="50.66845" lon="4.26861">
        <ele>98.67</ele>
        <time>2017-07-30T07:50:18Z</time>
      </trkpt>
      <trkpt lat="50.66852" lon="4.26858">
        <ele>99.63</ele>
        <time>2017-07-30T07:50:23Z</time>
      </trkpt>
      <trkpt lat="50.66855" lon="4.26857">
        <ele>97.71</ele>
        <time>2017-07-30T07:50:26Z</time>
      </trkpt>
      <trkpt lat="50.66862" lon="4.26856">
        <ele>99.15</ele>
        <time>2017-07-30T07:50:32Z</time>
      </trkpt>
      <trkpt lat="50.66867" lon="4.26854">
        <ele>97.23</ele>
        <time>2017-07-30T07:50:37Z</time>
      </trkpt>
      <trkpt lat="50.66878" lon="4.26843">
        <ele>98.19</ele>
        <time>2017-07-30T07:50:44Z</time>
      </trkpt>
      <trkpt lat="50.669" lon="4.26829">
        <ele>98.19</ele>
        <time>2017-07-30T07:51:05Z</time>
      </trkpt>
      <trkpt lat="50.66904" lon="4.26817">
        <ele>98.19</ele>
        <time>2017-07-30T07:51:10Z</time>
      </trkpt>
      <trkpt lat="50.66908" lon="4.26811">
        <ele>99.63</ele>
        <time>2017-07-30T07:51:15Z</time>
      </trkpt>
      <trkpt lat="50.66911" lon="4.26804">
        <ele>98.19</ele>
        <time>2017-07-30T07:51:20Z</time>
      </trkpt>
      <trkpt lat="50.66913" lon="4.26802">
        <ele>99.63</ele>
        <time>2017-07-30T07:51:22Z</time>
      </trkpt>
      <trkpt lat="50.66918" lon="4.26793">
        <ele>101.56</ele>
        <time>2017-07-30T07:51:28Z</time>
      </trkpt>
      <trkpt lat="50.66918" lon="4.26791">
        <ele>99.63</ele>
        <time>2017-07-30T07:51:30Z</time>
      </trkpt>
      <trkpt lat="50.66916" lon="4.26781">
        <ele>102.52</ele>
        <time>2017-07-30T07:51:37Z</time>
      </trkpt>
      <trkpt lat="50.66911" lon="4.26778">
        <ele>100.11</ele>
        <time>2017-07-30T07:51:43Z</time>
      </trkpt>
      <trkpt lat="50.66903" lon="4.26778">
        <ele>104.44</ele>
        <time>2017-07-30T07:51:52Z</time>
      </trkpt>
      <trkpt lat="50.66902" lon="4.26778">
        <ele>104.44</ele>
        <time>2017-07-30T07:51:53Z</time>
      </trkpt>
      <trkpt lat="50.66893" lon="4.26773">
        <ele>103.96</ele>
        <time>2017-07-30T07:52:01Z</time>
      </trkpt>
      <trkpt lat="50.66882" lon="4.2677">
        <ele>106.36</ele>
        <time>2017-07-30T07:52:09Z</time>
      </trkpt>
      <trkpt lat="50.66878" lon="4.26774">
        <ele>104.44</ele>
        <time>2017-07-30T07:52:13Z</time>
      </trkpt>
      <trkpt lat="50.66871" lon="4.26775">
        <ele>107.32</ele>
        <time>2017-07-30T07:52:20Z</time>
      </trkpt>
      <trkpt lat="50.66868" lon="4.26774">
        <ele>105.88</ele>
        <time>2017-07-30T07:52:22Z</time>
      </trkpt>
      <trkpt lat="50.66865" lon="4.26773">
        <ele>107.32</ele>
        <time>2017-07-30T07:52:25Z</time>
      </trkpt>
      <trkpt lat="50.6685" lon="4.26774">
        <ele>108.77</ele>
        <time>2017-07-30T07:52:37Z</time>
      </trkpt>
      <trkpt lat="50.66832" lon="4.26767">
        <ele>108.77</ele>
        <time>2017-07-30T07:52:57Z</time>
      </trkpt>
      <trkpt lat="50.66831" lon="4.26763">
        <ele>110.69</ele>
        <time>2017-07-30T07:53:03Z</time>
      </trkpt>
      <trkpt lat="50.66831" lon="4.26762">
        <ele>109.25</ele>
        <time>2017-07-30T07:53:05Z</time>
      </trkpt>
      <trkpt lat="50.66825" lon="4.26759">
        <ele>111.17</ele>
        <time>2017-07-30T07:53:09Z</time>
      </trkpt>
      <trkpt lat="50.66804" lon="4.26752">
        <ele>111.65</ele>
        <time>2017-07-30T07:53:19Z</time>
      </trkpt>
      <trkpt lat="50.66793" lon="4.26741">
        <ele>113.09</ele>
        <time>2017-07-30T07:53:26Z</time>
      </trkpt>
      <trkpt lat="50.66779" lon="4.26726">
        <ele>115.01</ele>
        <time>2017-07-30T07:53:39Z</time>
      </trkpt>
      <trkpt lat="50.66767" lon="4.26718">
        <ele>115.98</ele>
        <time>2017-07-30T07:53:52Z</time>
      </trkpt>
      <trkpt lat="50.66748" lon="4.26702">
        <ele>116.46</ele>
        <time>2017-07-30T07:54:07Z</time>
      </trkpt>
      <trkpt lat="50.66728" lon="4.26669">
        <ele>119.34</ele>
        <time>2017-07-30T07:54:27Z</time>
      </trkpt>
      <trkpt lat="50.66722" lon="4.26664">
        <ele>118.86</ele>
        <time>2017-07-30T07:54:33Z</time>
      </trkpt>
      <trkpt lat="50.6672" lon="4.26661">
        <ele>117.9</ele>
        <time>2017-07-30T07:54:36Z</time>
      </trkpt>
      <trkpt lat="50.66717" lon="4.26659">
        <ele>119.82</ele>
        <time>2017-07-30T07:54:38Z</time>
      </trkpt>
      <trkpt lat="50.66715" lon="4.26658">
        <ele>118.38</ele>
        <time>2017-07-30T07:54:40Z</time>
      </trkpt>
      <trkpt lat="50.66713" lon="4.26655">
        <ele>119.82</ele>
        <time>2017-07-30T07:54:43Z</time>
      </trkpt>
      <trkpt lat="50.66696" lon="4.2664">
        <ele>121.26</ele>
        <time>2017-07-30T07:54:56Z</time>
      </trkpt>
      <trkpt lat="50.66693" lon="4.26638">
        <ele>119.34</ele>
        <time>2017-07-30T07:54:58Z</time>
      </trkpt>
      <trkpt lat="50.66689" lon="4.26634">
        <ele>120.78</ele>
        <time>2017-07-30T07:55:01Z</time>
      </trkpt>
      <trkpt lat="50.66683" lon="4.26622">
        <ele>121.74</ele>
        <time>2017-07-30T07:55:10Z</time>
      </trkpt>
      <trkpt lat="50.66671" lon="4.26608">
        <ele>123.19</ele>
        <time>2017-07-30T07:55:22Z</time>
      </trkpt>
      <trkpt lat="50.66666" lon="4.26602">
        <ele>121.26</ele>
        <time>2017-07-30T07:55:26Z</time>
      </trkpt>
      <trkpt lat="50.66664" lon="4.26598">
        <ele>122.71</ele>
        <time>2017-07-30T07:55:29Z</time>
      </trkpt>
      <trkpt lat="50.66657" lon="4.26585">
        <ele>122.22</ele>
        <time>2017-07-30T07:55:37Z</time>
      </trkpt>
      <trkpt lat="50.66656" lon="4.26582">
        <ele>123.67</ele>
        <time>2017-07-30T07:55:39Z</time>
      </trkpt>
      <trkpt lat="50.66652" lon="4.26568">
        <ele>122.22</ele>
        <time>2017-07-30T07:55:46Z</time>
      </trkpt>
      <trkpt lat="50.66647" lon="4.26558">
        <ele>122.22</ele>
        <time>2017-07-30T07:55:54Z</time>
      </trkpt>
      <trkpt lat="50.66634" lon="4.26547">
        <ele>124.63</ele>
        <time>2017-07-30T07:56:04Z</time>
      </trkpt>
      <trkpt lat="50.66619" lon="4.26534">
        <ele>124.63</ele>
        <time>2017-07-30T07:56:16Z</time>
      </trkpt>
      <trkpt lat="50.66606" lon="4.26527">
        <ele>123.67</ele>
        <time>2017-07-30T07:56:26Z</time>
      </trkpt>
      <trkpt lat="50.66595" lon="4.26515">
        <ele>126.07</ele>
        <time>2017-07-30T07:56:35Z</time>
      </trkpt>
      <trkpt lat="50.66593" lon="4.2651">
        <ele>124.63</ele>
        <time>2017-07-30T07:56:37Z</time>
      </trkpt>
      <trkpt lat="50.66593" lon="4.26501">
        <ele>124.15</ele>
        <time>2017-07-30T07:56:58Z</time>
      </trkpt>
      <trkpt lat="50.66594" lon="4.265">
        <ele>123.67</ele>
        <time>2017-07-30T07:57:15Z</time>
      </trkpt>
      <trkpt lat="50.66594" lon="4.26499">
        <ele>125.59</ele>
        <time>2017-07-30T07:57:17Z</time>
      </trkpt>
      <trkpt lat="50.66592" lon="4.26496">
        <ele>124.63</ele>
        <time>2017-07-30T07:57:19Z</time>
      </trkpt>
      <trkpt lat="50.66577" lon="4.26461">
        <ele>123.67</ele>
        <time>2017-07-30T07:57:37Z</time>
      </trkpt>
      <trkpt lat="50.66565" lon="4.2644">
        <ele>123.19</ele>
        <time>2017-07-30T07:57:50Z</time>
      </trkpt>
      <trkpt lat="50.66557" lon="4.26423">
        <ele>122.71</ele>
        <time>2017-07-30T07:58:01Z</time>
      </trkpt>
      <trkpt lat="50.66547" lon="4.26405">
        <ele>122.22</ele>
        <time>2017-07-30T07:58:12Z</time>
      </trkpt>
      <trkpt lat="50.66541" lon="4.26398">
        <ele>121.26</ele>
        <time>2017-07-30T07:58:17Z</time>
      </trkpt>
      <trkpt lat="50.66537" lon="4.2639">
        <ele>122.71</ele>
        <time>2017-07-30T07:58:23Z</time>
      </trkpt>
      <trkpt lat="50.66535" lon="4.26387">
        <ele>121.26</ele>
        <time>2017-07-30T07:58:28Z</time>
      </trkpt>
      <trkpt lat="50.66528" lon="4.26372">
        <ele>121.26</ele>
        <time>2017-07-30T07:58:35Z</time>
      </trkpt>
      <trkpt lat="50.66518" lon="4.26339">
        <ele>124.15</ele>
        <time>2017-07-30T07:58:49Z</time>
      </trkpt>
      <trkpt lat="50.66517" lon="4.26324">
        <ele>124.63</ele>
        <time>2017-07-30T07:58:56Z</time>
      </trkpt>
      <trkpt lat="50.66508" lon="4.26286">
        <ele>127.51</ele>
        <time>2017-07-30T07:59:19Z</time>
      </trkpt>
      <trkpt lat="50.66506" lon="4.26284">
        <ele>126.07</ele>
        <time>2017-07-30T07:59:21Z</time>
      </trkpt>
      <trkpt lat="50.66515" lon="4.26256">
        <ele>124.15</ele>
        <time>2017-07-30T07:59:39Z</time>
      </trkpt>
      <trkpt lat="50.66523" lon="4.26248">
        <ele>124.63</ele>
        <time>2017-07-30T07:59:46Z</time>
      </trkpt>
      <trkpt lat="50.66544" lon="4.26232">
        <ele>123.19</ele>
        <time>2017-07-30T08:00:03Z</time>
      </trkpt>
      <trkpt lat="50.66571" lon="4.26213">
        <ele>122.22</ele>
        <time>2017-07-30T08:00:24Z</time>
      </trkpt>
      <trkpt lat="50.66583" lon="4.26206">
        <ele>123.67</ele>
        <time>2017-07-30T08:00:34Z</time>
      </trkpt>
      <trkpt lat="50.6659" lon="4.26206">
        <ele>123.67</ele>
        <time>2017-07-30T08:00:39Z</time>
      </trkpt>
      <trkpt lat="50.666" lon="4.26203">
        <ele>123.67</ele>
        <time>2017-07-30T08:00:46Z</time>
      </trkpt>
      <trkpt lat="50.66609" lon="4.26197">
        <ele>122.22</ele>
        <time>2017-07-30T08:00:53Z</time>
      </trkpt>
      <trkpt lat="50.66632" lon="4.2619">
        <ele>121.74</ele>
        <time>2017-07-30T08:01:13Z</time>
      </trkpt>
      <trkpt lat="50.66635" lon="4.26189">
        <ele>123.19</ele>
        <time>2017-07-30T08:01:15Z</time>
      </trkpt>
      <trkpt lat="50.66652" lon="4.26178">
        <ele>122.22</ele>
        <time>2017-07-30T08:01:28Z</time>
      </trkpt>
      <trkpt lat="50.66653" lon="4.26172">
        <ele>124.15</ele>
        <time>2017-07-30T08:01:31Z</time>
      </trkpt>
      <trkpt lat="50.66652" lon="4.26162">
        <ele>123.19</ele>
        <time>2017-07-30T08:01:37Z</time>
      </trkpt>
      <trkpt lat="50.66655" lon="4.26142">
        <ele>124.63</ele>
        <time>2017-07-30T08:01:46Z</time>
      </trkpt>
      <trkpt lat="50.66658" lon="4.26123">
        <ele>123.67</ele>
        <time>2017-07-30T08:01:55Z</time>
      </trkpt>
      <trkpt lat="50.66658" lon="4.26117">
        <ele>125.59</ele>
        <time>2017-07-30T08:01:58Z</time>
      </trkpt>
      <trkpt lat="50.66669" lon="4.26079">
        <ele>125.59</ele>
        <time>2017-07-30T08:02:15Z</time>
      </trkpt>
      <trkpt lat="50.66672" lon="4.26072">
        <ele>124.63</ele>
        <time>2017-07-30T08:02:19Z</time>
      </trkpt>
      <trkpt lat="50.66674" lon="4.26069">
        <ele>126.07</ele>
        <time>2017-07-30T08:02:22Z</time>
      </trkpt>
      <trkpt lat="50.66676" lon="4.26065">
        <ele>124.63</ele>
        <time>2017-07-30T08:02:25Z</time>
      </trkpt>
      <trkpt lat="50.66683" lon="4.2605">
        <ele>125.59</ele>
        <time>2017-07-30T08:02:33Z</time>
      </trkpt>
      <trkpt lat="50.66684" lon="4.26039">
        <ele>125.59</ele>
        <time>2017-07-30T08:02:39Z</time>
      </trkpt>
      <trkpt lat="50.66688" lon="4.26027">
        <ele>123.67</ele>
        <time>2017-07-30T08:02:46Z</time>
      </trkpt>
      <trkpt lat="50.66691" lon="4.26023">
        <ele>125.11</ele>
        <time>2017-07-30T08:02:49Z</time>
      </trkpt>
      <trkpt lat="50.66692" lon="4.2602">
        <ele>124.15</ele>
        <time>2017-07-30T08:02:51Z</time>
      </trkpt>
      <trkpt lat="50.66701" lon="4.2599">
        <ele>123.67</ele>
        <time>2017-07-30T08:03:09Z</time>
      </trkpt>
      <trkpt lat="50.66711" lon="4.25963">
        <ele>123.67</ele>
        <time>2017-07-30T08:03:24Z</time>
      </trkpt>
      <trkpt lat="50.66714" lon="4.25956">
        <ele>122.22</ele>
        <time>2017-07-30T08:03:28Z</time>
      </trkpt>
      <trkpt lat="50.66722" lon="4.25928">
        <ele>121.26</ele>
        <time>2017-07-30T08:03:42Z</time>
      </trkpt>
      <trkpt lat="50.66734" lon="4.25893">
        <ele>121.74</ele>
        <time>2017-07-30T08:03:58Z</time>
      </trkpt>
      <trkpt lat="50.66738" lon="4.25877">
        <ele>119.82</ele>
        <time>2017-07-30T08:04:06Z</time>
      </trkpt>
      <trkpt lat="50.66739" lon="4.25871">
        <ele>121.74</ele>
        <time>2017-07-30T08:04:09Z</time>
      </trkpt>
      <trkpt lat="50.66746" lon="4.25853">
        <ele>120.3</ele>
        <time>2017-07-30T08:04:17Z</time>
      </trkpt>
      <trkpt lat="50.66751" lon="4.25836">
        <ele>119.34</ele>
        <time>2017-07-30T08:04:26Z</time>
      </trkpt>
      <trkpt lat="50.66757" lon="4.2582">
        <ele>120.3</ele>
        <time>2017-07-30T08:04:33Z</time>
      </trkpt>
      <trkpt lat="50.66757" lon="4.25814">
        <ele>118.38</ele>
        <time>2017-07-30T08:04:36Z</time>
      </trkpt>
      <trkpt lat="50.66758" lon="4.2581">
        <ele>119.82</ele>
        <time>2017-07-30T08:04:38Z</time>
      </trkpt>
      <trkpt lat="50.66764" lon="4.2578">
        <ele>118.86</ele>
        <time>2017-07-30T08:04:54Z</time>
      </trkpt>
      <trkpt lat="50.66772" lon="4.25748">
        <ele>116.94</ele>
        <time>2017-07-30T08:05:13Z</time>
      </trkpt>
      <trkpt lat="50.66773" lon="4.25743">
        <ele>118.38</ele>
        <time>2017-07-30T08:05:16Z</time>
      </trkpt>
      <trkpt lat="50.66762" lon="4.25743">
        <ele>116.94</ele>
        <time>2017-07-30T08:05:32Z</time>
      </trkpt>
      <trkpt lat="50.66758" lon="4.25745">
        <ele>118.86</ele>
        <time>2017-07-30T08:05:36Z</time>
      </trkpt>
      <trkpt lat="50.66753" lon="4.25748">
        <ele>118.86</ele>
        <time>2017-07-30T08:05:42Z</time>
      </trkpt>
      <trkpt lat="50.66734" lon="4.25755">
        <ele>119.82</ele>
        <time>2017-07-30T08:05:56Z</time>
      </trkpt>
      <trkpt lat="50.66721" lon="4.25757">
        <ele>119.34</ele>
        <time>2017-07-30T08:06:03Z</time>
      </trkpt>
      <trkpt lat="50.66713" lon="4.25761">
        <ele>119.82</ele>
        <time>2017-07-30T08:06:10Z</time>
      </trkpt>
      <trkpt lat="50.66706" lon="4.25762">
        <ele>120.3</ele>
        <time>2017-07-30T08:06:16Z</time>
      </trkpt>
      <trkpt lat="50.667" lon="4.25765">
        <ele>118.86</ele>
        <time>2017-07-30T08:06:22Z</time>
      </trkpt>
      <trkpt lat="50.66692" lon="4.25769">
        <ele>119.82</ele>
        <time>2017-07-30T08:06:30Z</time>
      </trkpt>
      <trkpt lat="50.66682" lon="4.25769">
        <ele>121.74</ele>
        <time>2017-07-30T08:06:38Z</time>
      </trkpt>
      <trkpt lat="50.66678" lon="4.2577">
        <ele>120.3</ele>
        <time>2017-07-30T08:06:41Z</time>
      </trkpt>
      <trkpt lat="50.66673" lon="4.25773">
        <ele>121.74</ele>
        <time>2017-07-30T08:06:45Z</time>
      </trkpt>
      <trkpt lat="50.66663" lon="4.25777">
        <ele>120.78</ele>
        <time>2017-07-30T08:06:57Z</time>
      </trkpt>
      <trkpt lat="50.66658" lon="4.25778">
        <ele>122.71</ele>
        <time>2017-07-30T08:07:00Z</time>
      </trkpt>
      <trkpt lat="50.66651" lon="4.25783">
        <ele>121.26</ele>
        <time>2017-07-30T08:07:04Z</time>
      </trkpt>
      <trkpt lat="50.66649" lon="4.25784">
        <ele>123.67</ele>
        <time>2017-07-30T08:07:06Z</time>
      </trkpt>
      <trkpt lat="50.66627" lon="4.25788">
        <ele>122.71</ele>
        <time>2017-07-30T08:07:22Z</time>
      </trkpt>
      <trkpt lat="50.66614" lon="4.25794">
        <ele>124.15</ele>
        <time>2017-07-30T08:07:30Z</time>
      </trkpt>
      <trkpt lat="50.66607" lon="4.25795">
        <ele>123.19</ele>
        <time>2017-07-30T08:07:34Z</time>
      </trkpt>
      <trkpt lat="50.66587" lon="4.25799">
        <ele>125.11</ele>
        <time>2017-07-30T08:07:47Z</time>
      </trkpt>
      <trkpt lat="50.66585" lon="4.25801">
        <ele>123.67</ele>
        <time>2017-07-30T08:07:50Z</time>
      </trkpt>
      <trkpt lat="50.66583" lon="4.25802">
        <ele>125.11</ele>
        <time>2017-07-30T08:07:52Z</time>
      </trkpt>
      <trkpt lat="50.66569" lon="4.2581">
        <ele>124.63</ele>
        <time>2017-07-30T08:08:08Z</time>
      </trkpt>
      <trkpt lat="50.66568" lon="4.25811">
        <ele>125.59</ele>
        <time>2017-07-30T08:08:10Z</time>
      </trkpt>
      <trkpt lat="50.66543" lon="4.25819">
        <ele>127.03</ele>
        <time>2017-07-30T08:08:30Z</time>
      </trkpt>
      <trkpt lat="50.66507" lon="4.25824">
        <ele>127.51</ele>
        <time>2017-07-30T08:08:53Z</time>
      </trkpt>
      <trkpt lat="50.66495" lon="4.25832">
        <ele>128.95</ele>
        <time>2017-07-30T08:09:07Z</time>
      </trkpt>
      <trkpt lat="50.66491" lon="4.25835">
        <ele>127.51</ele>
        <time>2017-07-30T08:09:11Z</time>
      </trkpt>
      <trkpt lat="50.66486" lon="4.25836">
        <ele>128.95</ele>
        <time>2017-07-30T08:09:15Z</time>
      </trkpt>
      <trkpt lat="50.6648" lon="4.25839">
        <ele>128.95</ele>
        <time>2017-07-30T08:09:21Z</time>
      </trkpt>
      <trkpt lat="50.66465" lon="4.25842">
        <ele>129.92</ele>
        <time>2017-07-30T08:09:32Z</time>
      </trkpt>
      <trkpt lat="50.66455" lon="4.25848">
        <ele>130.4</ele>
        <time>2017-07-30T08:09:41Z</time>
      </trkpt>
      <trkpt lat="50.66447" lon="4.25854">
        <ele>128.95</ele>
        <time>2017-07-30T08:09:48Z</time>
      </trkpt>
      <trkpt lat="50.66444" lon="4.25857">
        <ele>130.88</ele>
        <time>2017-07-30T08:09:50Z</time>
      </trkpt>
      <trkpt lat="50.66437" lon="4.25862">
        <ele>129.43</ele>
        <time>2017-07-30T08:09:56Z</time>
      </trkpt>
      <trkpt lat="50.66433" lon="4.25866">
        <ele>130.4</ele>
        <time>2017-07-30T08:09:59Z</time>
      </trkpt>
      <trkpt lat="50.66408" lon="4.25869">
        <ele>131.84</ele>
        <time>2017-07-30T08:10:20Z</time>
      </trkpt>
      <trkpt lat="50.6638" lon="4.25866">
        <ele>131.84</ele>
        <time>2017-07-30T08:10:41Z</time>
      </trkpt>
      <trkpt lat="50.66341" lon="4.2588">
        <ele>132.32</ele>
        <time>2017-07-30T08:11:05Z</time>
      </trkpt>
      <trkpt lat="50.66331" lon="4.25873">
        <ele>130.88</ele>
        <time>2017-07-30T08:11:10Z</time>
      </trkpt>
      <trkpt lat="50.66301" lon="4.25854">
        <ele>130.88</ele>
        <time>2017-07-30T08:11:31Z</time>
      </trkpt>
      <trkpt lat="50.66295" lon="4.25852">
        <ele>128.95</ele>
        <time>2017-07-30T08:11:37Z</time>
      </trkpt>
      <trkpt lat="50.66279" lon="4.25844">
        <ele>130.88</ele>
        <time>2017-07-30T08:11:49Z</time>
      </trkpt>
      <trkpt lat="50.66259" lon="4.25831">
        <ele>129.43</ele>
        <time>2017-07-30T08:12:08Z</time>
      </trkpt>
      <trkpt lat="50.66255" lon="4.25827">
        <ele>130.88</ele>
        <time>2017-07-30T08:12:10Z</time>
      </trkpt>
      <trkpt lat="50.66252" lon="4.25825">
        <ele>129.43</ele>
        <time>2017-07-30T08:12:12Z</time>
      </trkpt>
      <trkpt lat="50.66246" lon="4.25821">
        <ele>131.36</ele>
        <time>2017-07-30T08:12:17Z</time>
      </trkpt>
      <trkpt lat="50.66243" lon="4.25819">
        <ele>129.43</ele>
        <time>2017-07-30T08:12:19Z</time>
      </trkpt>
      <trkpt lat="50.66237" lon="4.25812">
        <ele>128.95</ele>
        <time>2017-07-30T08:12:24Z</time>
      </trkpt>
      <trkpt lat="50.66233" lon="4.25803">
        <ele>129.43</ele>
        <time>2017-07-30T08:12:30Z</time>
      </trkpt>
      <trkpt lat="50.66227" lon="4.25795">
        <ele>127.99</ele>
        <time>2017-07-30T08:12:36Z</time>
      </trkpt>
      <trkpt lat="50.66225" lon="4.25793">
        <ele>128.95</ele>
        <time>2017-07-30T08:12:38Z</time>
      </trkpt>
      <trkpt lat="50.66208" lon="4.25759">
        <ele>131.84</ele>
        <time>2017-07-30T08:12:56Z</time>
      </trkpt>
      <trkpt lat="50.66207" lon="4.25753">
        <ele>129.92</ele>
        <time>2017-07-30T08:12:59Z</time>
      </trkpt>
      <trkpt lat="50.66205" lon="4.25735">
        <ele>132.8</ele>
        <time>2017-07-30T08:13:09Z</time>
      </trkpt>
      <trkpt lat="50.66204" lon="4.25733">
        <ele>133.76</ele>
        <time>2017-07-30T08:13:11Z</time>
      </trkpt>
      <trkpt lat="50.66195" lon="4.25715">
        <ele>133.28</ele>
        <time>2017-07-30T08:13:21Z</time>
      </trkpt>
      <trkpt lat="50.66182" lon="4.25697">
        <ele>131.84</ele>
        <time>2017-07-30T08:13:30Z</time>
      </trkpt>
      <trkpt lat="50.6618" lon="4.25694">
        <ele>133.28</ele>
        <time>2017-07-30T08:13:32Z</time>
      </trkpt>
      <trkpt lat="50.66178" lon="4.25685">
        <ele>132.32</ele>
        <time>2017-07-30T08:13:36Z</time>
      </trkpt>
      <trkpt lat="50.66172" lon="4.25666">
        <ele>130.88</ele>
        <time>2017-07-30T08:13:47Z</time>
      </trkpt>
      <trkpt lat="50.6617" lon="4.25652">
        <ele>132.32</ele>
        <time>2017-07-30T08:13:53Z</time>
      </trkpt>
      <trkpt lat="50.66169" lon="4.25645">
        <ele>130.88</ele>
        <time>2017-07-30T08:13:56Z</time>
      </trkpt>
      <trkpt lat="50.66163" lon="4.25633">
        <ele>130.88</ele>
        <time>2017-07-30T08:14:02Z</time>
      </trkpt>
      <trkpt lat="50.66149" lon="4.25603">
        <ele>128.95</ele>
        <time>2017-07-30T08:14:22Z</time>
      </trkpt>
      <trkpt lat="50.66145" lon="4.25587">
        <ele>129.92</ele>
        <time>2017-07-30T08:14:31Z</time>
      </trkpt>
      <trkpt lat="50.66141" lon="4.25577">
        <ele>127.99</ele>
        <time>2017-07-30T08:14:37Z</time>
      </trkpt>
      <trkpt lat="50.66137" lon="4.25571">
        <ele>127.99</ele>
        <time>2017-07-30T08:14:41Z</time>
      </trkpt>
      <trkpt lat="50.66124" lon="4.2555">
        <ele>126.07</ele>
        <time>2017-07-30T08:14:52Z</time>
      </trkpt>
      <trkpt lat="50.66121" lon="4.2554">
        <ele>125.59</ele>
        <time>2017-07-30T08:15:00Z</time>
      </trkpt>
      <trkpt lat="50.66117" lon="4.25528">
        <ele>127.03</ele>
        <time>2017-07-30T08:15:07Z</time>
      </trkpt>
      <trkpt lat="50.66109" lon="4.2552">
        <ele>128.47</ele>
        <time>2017-07-30T08:15:15Z</time>
      </trkpt>
      <trkpt lat="50.66099" lon="4.25511">
        <ele>127.51</ele>
        <time>2017-07-30T08:15:24Z</time>
      </trkpt>
      <trkpt lat="50.66089" lon="4.255">
        <ele>130.4</ele>
        <time>2017-07-30T08:15:31Z</time>
      </trkpt>
      <trkpt lat="50.66077" lon="4.25496">
        <ele>131.36</ele>
        <time>2017-07-30T08:15:49Z</time>
      </trkpt>
      <trkpt lat="50.66076" lon="4.25498">
        <ele>131.36</ele>
        <time>2017-07-30T08:15:51Z</time>
      </trkpt>
      <trkpt lat="50.66073" lon="4.25535">
        <ele>128.47</ele>
        <time>2017-07-30T08:16:10Z</time>
      </trkpt>
      <trkpt lat="50.66074" lon="4.25538">
        <ele>128.47</ele>
        <time>2017-07-30T08:16:11Z</time>
      </trkpt>
      <trkpt lat="50.66073" lon="4.25564">
        <ele>131.36</ele>
        <time>2017-07-30T08:16:25Z</time>
      </trkpt>
      <trkpt lat="50.66073" lon="4.25576">
        <ele>130.4</ele>
        <time>2017-07-30T08:16:32Z</time>
      </trkpt>
      <trkpt lat="50.66073" lon="4.25578">
        <ele>130.4</ele>
        <time>2017-07-30T08:16:33Z</time>
      </trkpt>
      <trkpt lat="50.66072" lon="4.25583">
        <ele>131.36</ele>
        <time>2017-07-30T08:16:35Z</time>
      </trkpt>
      <trkpt lat="50.66071" lon="4.2563">
        <ele>132.8</ele>
        <time>2017-07-30T08:16:53Z</time>
      </trkpt>
      <trkpt lat="50.66072" lon="4.25635">
        <ele>134.24</ele>
        <time>2017-07-30T08:16:55Z</time>
      </trkpt>
      <trkpt lat="50.66068" lon="4.25659">
        <ele>132.8</ele>
        <time>2017-07-30T08:17:06Z</time>
      </trkpt>
      <trkpt lat="50.66068" lon="4.25663">
        <ele>135.2</ele>
        <time>2017-07-30T08:17:08Z</time>
      </trkpt>
      <trkpt lat="50.66069" lon="4.25679">
        <ele>135.2</ele>
        <time>2017-07-30T08:17:16Z</time>
      </trkpt>
      <trkpt lat="50.6607" lon="4.2569">
        <ele>135.2</ele>
        <time>2017-07-30T08:17:21Z</time>
      </trkpt>
      <trkpt lat="50.66076" lon="4.25706">
        <ele>137.61</ele>
        <time>2017-07-30T08:17:30Z</time>
      </trkpt>
      <trkpt lat="50.66078" lon="4.25721">
        <ele>137.13</ele>
        <time>2017-07-30T08:17:36Z</time>
      </trkpt>
      <trkpt lat="50.66079" lon="4.25724">
        <ele>135.68</ele>
        <time>2017-07-30T08:17:38Z</time>
      </trkpt>
      <trkpt lat="50.66082" lon="4.25732">
        <ele>137.61</ele>
        <time>2017-07-30T08:17:42Z</time>
      </trkpt>
      <trkpt lat="50.66088" lon="4.25753">
        <ele>137.13</ele>
        <time>2017-07-30T08:17:55Z</time>
      </trkpt>
      <trkpt lat="50.66089" lon="4.25758">
        <ele>139.05</ele>
        <time>2017-07-30T08:17:58Z</time>
      </trkpt>
      <trkpt lat="50.66099" lon="4.25793">
        <ele>139.05</ele>
        <time>2017-07-30T08:18:16Z</time>
      </trkpt>
      <trkpt lat="50.66101" lon="4.25797">
        <ele>137.61</ele>
        <time>2017-07-30T08:18:18Z</time>
      </trkpt>
      <trkpt lat="50.66105" lon="4.25811">
        <ele>136.16</ele>
        <time>2017-07-30T08:18:26Z</time>
      </trkpt>
      <trkpt lat="50.66106" lon="4.25816">
        <ele>137.61</ele>
        <time>2017-07-30T08:18:28Z</time>
      </trkpt>
      <trkpt lat="50.66111" lon="4.25852">
        <ele>137.61</ele>
        <time>2017-07-30T08:18:45Z</time>
      </trkpt>
      <trkpt lat="50.66115" lon="4.25869">
        <ele>135.68</ele>
        <time>2017-07-30T08:18:53Z</time>
      </trkpt>
      <trkpt lat="50.66124" lon="4.25905">
        <ele>137.61</ele>
        <time>2017-07-30T08:19:10Z</time>
      </trkpt>
      <trkpt lat="50.66137" lon="4.2595">
        <ele>139.05</ele>
        <time>2017-07-30T08:19:33Z</time>
      </trkpt>
      <trkpt lat="50.66146" lon="4.25989">
        <ele>138.57</ele>
        <time>2017-07-30T08:19:51Z</time>
      </trkpt>
      <trkpt lat="50.66153" lon="4.26018">
        <ele>139.05</ele>
        <time>2017-07-30T08:20:04Z</time>
      </trkpt>
      <trkpt lat="50.66156" lon="4.26025">
        <ele>137.61</ele>
        <time>2017-07-30T08:20:08Z</time>
      </trkpt>
      <trkpt lat="50.66163" lon="4.2605">
        <ele>139.05</ele>
        <time>2017-07-30T08:20:21Z</time>
      </trkpt>
      <trkpt lat="50.66165" lon="4.26054">
        <ele>137.61</ele>
        <time>2017-07-30T08:20:23Z</time>
      </trkpt>
      <trkpt lat="50.66175" lon="4.26097">
        <ele>137.61</ele>
        <time>2017-07-30T08:20:43Z</time>
      </trkpt>
      <trkpt lat="50.66189" lon="4.26137">
        <ele>136.16</ele>
        <time>2017-07-30T08:21:02Z</time>
      </trkpt>
      <trkpt lat="50.6619" lon="4.26142">
        <ele>137.61</ele>
        <time>2017-07-30T08:21:05Z</time>
      </trkpt>
      <trkpt lat="50.66199" lon="4.2617">
        <ele>136.16</ele>
        <time>2017-07-30T08:21:20Z</time>
      </trkpt>
      <trkpt lat="50.66211" lon="4.26218">
        <ele>137.61</ele>
        <time>2017-07-30T08:21:43Z</time>
      </trkpt>
      <trkpt lat="50.66216" lon="4.26239">
        <ele>135.68</ele>
        <time>2017-07-30T08:21:52Z</time>
      </trkpt>
      <trkpt lat="50.66225" lon="4.2627">
        <ele>135.2</ele>
        <time>2017-07-30T08:22:07Z</time>
      </trkpt>
      <trkpt lat="50.66233" lon="4.26304">
        <ele>137.13</ele>
        <time>2017-07-30T08:22:24Z</time>
      </trkpt>
      <trkpt lat="50.66237" lon="4.26317">
        <ele>135.68</ele>
        <time>2017-07-30T08:22:31Z</time>
      </trkpt>
      <trkpt lat="50.66249" lon="4.26356">
        <ele>135.2</ele>
        <time>2017-07-30T08:22:49Z</time>
      </trkpt>
      <trkpt lat="50.66256" lon="4.26389">
        <ele>136.16</ele>
        <time>2017-07-30T08:23:05Z</time>
      </trkpt>
      <trkpt lat="50.66257" lon="4.26391">
        <ele>136.16</ele>
        <time>2017-07-30T08:23:06Z</time>
      </trkpt>
      <trkpt lat="50.66261" lon="4.26408">
        <ele>133.76</ele>
        <time>2017-07-30T08:23:15Z</time>
      </trkpt>
      <trkpt lat="50.66264" lon="4.26417">
        <ele>135.2</ele>
        <time>2017-07-30T08:23:20Z</time>
      </trkpt>
      <trkpt lat="50.66268" lon="4.26428">
        <ele>134.72</ele>
        <time>2017-07-30T08:23:26Z</time>
      </trkpt>
      <trkpt lat="50.66278" lon="4.26473">
        <ele>136.16</ele>
        <time>2017-07-30T08:23:47Z</time>
      </trkpt>
      <trkpt lat="50.66279" lon="4.26478">
        <ele>134.24</ele>
        <time>2017-07-30T08:23:49Z</time>
      </trkpt>
      <trkpt lat="50.6628" lon="4.26517">
        <ele>133.76</ele>
        <time>2017-07-30T08:24:08Z</time>
      </trkpt>
      <trkpt lat="50.66279" lon="4.26522">
        <ele>134.72</ele>
        <time>2017-07-30T08:24:10Z</time>
      </trkpt>
      <trkpt lat="50.66272" lon="4.26546">
        <ele>133.28</ele>
        <time>2017-07-30T08:24:21Z</time>
      </trkpt>
      <trkpt lat="50.66271" lon="4.26551">
        <ele>134.24</ele>
        <time>2017-07-30T08:24:23Z</time>
      </trkpt>
      <trkpt lat="50.66266" lon="4.2657">
        <ele>132.32</ele>
        <time>2017-07-30T08:24:33Z</time>
      </trkpt>
      <trkpt lat="50.66265" lon="4.26573">
        <ele>134.72</ele>
        <time>2017-07-30T08:24:35Z</time>
      </trkpt>
      <trkpt lat="50.66263" lon="4.26578">
        <ele>132.32</ele>
        <time>2017-07-30T08:24:38Z</time>
      </trkpt>
      <trkpt lat="50.66255" lon="4.26614">
        <ele>131.84</ele>
        <time>2017-07-30T08:24:54Z</time>
      </trkpt>
      <trkpt lat="50.66249" lon="4.26658">
        <ele>131.36</ele>
        <time>2017-07-30T08:25:15Z</time>
      </trkpt>
      <trkpt lat="50.66249" lon="4.2667">
        <ele>131.84</ele>
        <time>2017-07-30T08:25:21Z</time>
      </trkpt>
      <trkpt lat="50.66241" lon="4.26721">
        <ele>130.88</ele>
        <time>2017-07-30T08:25:44Z</time>
      </trkpt>
      <trkpt lat="50.6624" lon="4.26731">
        <ele>132.32</ele>
        <time>2017-07-30T08:25:48Z</time>
      </trkpt>
      <trkpt lat="50.66238" lon="4.2674">
        <ele>130.88</ele>
        <time>2017-07-30T08:25:52Z</time>
      </trkpt>
      <trkpt lat="50.66236" lon="4.26751">
        <ele>132.32</ele>
        <time>2017-07-30T08:25:57Z</time>
      </trkpt>
      <trkpt lat="50.66231" lon="4.26772">
        <ele>130.88</ele>
        <time>2017-07-30T08:26:07Z</time>
      </trkpt>
      <trkpt lat="50.66221" lon="4.26814">
        <ele>130.4</ele>
        <time>2017-07-30T08:26:28Z</time>
      </trkpt>
      <trkpt lat="50.6621" lon="4.26854">
        <ele>128.95</ele>
        <time>2017-07-30T08:26:49Z</time>
      </trkpt>
      <trkpt lat="50.66207" lon="4.26867">
        <ele>130.88</ele>
        <time>2017-07-30T08:26:55Z</time>
      </trkpt>
      <trkpt lat="50.66206" lon="4.26878">
        <ele>128.95</ele>
        <time>2017-07-30T08:27:00Z</time>
      </trkpt>
      <trkpt lat="50.66206" lon="4.26893">
        <ele>130.4</ele>
        <time>2017-07-30T08:27:07Z</time>
      </trkpt>
      <trkpt lat="50.66205" lon="4.269">
        <ele>128.95</ele>
        <time>2017-07-30T08:27:10Z</time>
      </trkpt>
      <trkpt lat="50.6621" lon="4.26939">
        <ele>129.92</ele>
        <time>2017-07-30T08:27:28Z</time>
      </trkpt>
      <trkpt lat="50.66212" lon="4.26953">
        <ele>129.92</ele>
        <time>2017-07-30T08:27:34Z</time>
      </trkpt>
      <trkpt lat="50.66217" lon="4.26999">
        <ele>129.92</ele>
        <time>2017-07-30T08:27:55Z</time>
      </trkpt>
      <trkpt lat="50.66212" lon="4.27044">
        <ele>128.95</ele>
        <time>2017-07-30T08:28:16Z</time>
      </trkpt>
      <trkpt lat="50.66207" lon="4.27093">
        <ele>129.43</ele>
        <time>2017-07-30T08:28:38Z</time>
      </trkpt>
      <trkpt lat="50.66205" lon="4.27106">
        <ele>128.47</ele>
        <time>2017-07-30T08:28:44Z</time>
      </trkpt>
      <trkpt lat="50.66204" lon="4.27111">
        <ele>129.43</ele>
        <time>2017-07-30T08:28:47Z</time>
      </trkpt>
      <trkpt lat="50.66201" lon="4.27125">
        <ele>128.95</ele>
        <time>2017-07-30T08:28:54Z</time>
      </trkpt>
      <trkpt lat="50.66198" lon="4.27154">
        <ele>127.99</ele>
        <time>2017-07-30T08:29:08Z</time>
      </trkpt>
      <trkpt lat="50.66198" lon="4.27161">
        <ele>129.43</ele>
        <time>2017-07-30T08:29:11Z</time>
      </trkpt>
      <trkpt lat="50.66199" lon="4.27169">
        <ele>127.99</ele>
        <time>2017-07-30T08:29:14Z</time>
      </trkpt>
      <trkpt lat="50.66204" lon="4.27213">
        <ele>130.4</ele>
        <time>2017-07-30T08:29:34Z</time>
      </trkpt>
      <trkpt lat="50.66203" lon="4.27246">
        <ele>128.47</ele>
        <time>2017-07-30T08:29:50Z</time>
      </trkpt>
      <trkpt lat="50.66201" lon="4.27263">
        <ele>129.92</ele>
        <time>2017-07-30T08:29:57Z</time>
      </trkpt>
      <trkpt lat="50.662" lon="4.27275">
        <ele>128.47</ele>
        <time>2017-07-30T08:30:02Z</time>
      </trkpt>
      <trkpt lat="50.66199" lon="4.27284">
        <ele>129.92</ele>
        <time>2017-07-30T08:30:06Z</time>
      </trkpt>
      <trkpt lat="50.66199" lon="4.27289">
        <ele>128.47</ele>
        <time>2017-07-30T08:30:08Z</time>
      </trkpt>
      <trkpt lat="50.66193" lon="4.27334">
        <ele>127.99</ele>
        <time>2017-07-30T08:30:28Z</time>
      </trkpt>
      <trkpt lat="50.6619" lon="4.27342">
        <ele>129.43</ele>
        <time>2017-07-30T08:30:32Z</time>
      </trkpt>
      <trkpt lat="50.66178" lon="4.2737">
        <ele>130.88</ele>
        <time>2017-07-30T08:30:46Z</time>
      </trkpt>
      <trkpt lat="50.66176" lon="4.27374">
        <ele>129.43</ele>
        <time>2017-07-30T08:30:48Z</time>
      </trkpt>
      <trkpt lat="50.66166" lon="4.27418">
        <ele>130.88</ele>
        <time>2017-07-30T08:31:09Z</time>
      </trkpt>
      <trkpt lat="50.66162" lon="4.27427">
        <ele>129.43</ele>
        <time>2017-07-30T08:31:14Z</time>
      </trkpt>
      <trkpt lat="50.66161" lon="4.27431">
        <ele>130.88</ele>
        <time>2017-07-30T08:31:16Z</time>
      </trkpt>
      <trkpt lat="50.66154" lon="4.27449">
        <ele>131.36</ele>
        <time>2017-07-30T08:31:25Z</time>
      </trkpt>
      <trkpt lat="50.66149" lon="4.27457">
        <ele>129.92</ele>
        <time>2017-07-30T08:31:30Z</time>
      </trkpt>
      <trkpt lat="50.66147" lon="4.2746">
        <ele>131.36</ele>
        <time>2017-07-30T08:31:32Z</time>
      </trkpt>
      <trkpt lat="50.66142" lon="4.2748">
        <ele>133.28</ele>
        <time>2017-07-30T08:31:43Z</time>
      </trkpt>
      <trkpt lat="50.6614" lon="4.27484">
        <ele>131.84</ele>
        <time>2017-07-30T08:31:45Z</time>
      </trkpt>
      <trkpt lat="50.66138" lon="4.27488">
        <ele>133.28</ele>
        <time>2017-07-30T08:31:48Z</time>
      </trkpt>
      <trkpt lat="50.66136" lon="4.27494">
        <ele>134.72</ele>
        <time>2017-07-30T08:31:52Z</time>
      </trkpt>
      <trkpt lat="50.66135" lon="4.27497">
        <ele>132.8</ele>
        <time>2017-07-30T08:31:54Z</time>
      </trkpt>
      <trkpt lat="50.66133" lon="4.27503">
        <ele>134.72</ele>
        <time>2017-07-30T08:31:57Z</time>
      </trkpt>
      <trkpt lat="50.66123" lon="4.27523">
        <ele>133.76</ele>
        <time>2017-07-30T08:32:11Z</time>
      </trkpt>
      <trkpt lat="50.66121" lon="4.27528">
        <ele>131.84</ele>
        <time>2017-07-30T08:32:14Z</time>
      </trkpt>
      <trkpt lat="50.66105" lon="4.27555">
        <ele>128.95</ele>
        <time>2017-07-30T08:32:31Z</time>
      </trkpt>
      <trkpt lat="50.66099" lon="4.2758">
        <ele>127.03</ele>
        <time>2017-07-30T08:32:46Z</time>
      </trkpt>
      <trkpt lat="50.661" lon="4.27589">
        <ele>127.99</ele>
        <time>2017-07-30T08:32:50Z</time>
      </trkpt>
      <trkpt lat="50.66096" lon="4.27611">
        <ele>127.51</ele>
        <time>2017-07-30T08:33:01Z</time>
      </trkpt>
      <trkpt lat="50.6609" lon="4.27638">
        <ele>127.51</ele>
        <time>2017-07-30T08:33:13Z</time>
      </trkpt>
      <trkpt lat="50.66085" lon="4.27655">
        <ele>127.99</ele>
        <time>2017-07-30T08:33:21Z</time>
      </trkpt>
      <trkpt lat="50.66076" lon="4.27686">
        <ele>126.07</ele>
        <time>2017-07-30T08:33:37Z</time>
      </trkpt>
      <trkpt lat="50.66071" lon="4.27714">
        <ele>126.55</ele>
        <time>2017-07-30T08:33:50Z</time>
      </trkpt>
      <trkpt lat="50.66069" lon="4.2772">
        <ele>124.63</ele>
        <time>2017-07-30T08:33:53Z</time>
      </trkpt>
      <trkpt lat="50.66067" lon="4.27725">
        <ele>127.03</ele>
        <time>2017-07-30T08:33:56Z</time>
      </trkpt>
      <trkpt lat="50.66066" lon="4.2773">
        <ele>125.59</ele>
        <time>2017-07-30T08:33:59Z</time>
      </trkpt>
      <trkpt lat="50.66063" lon="4.27756">
        <ele>126.55</ele>
        <time>2017-07-30T08:34:11Z</time>
      </trkpt>
      <trkpt lat="50.6606" lon="4.27767">
        <ele>125.59</ele>
        <time>2017-07-30T08:34:16Z</time>
      </trkpt>
      <trkpt lat="50.6605" lon="4.27802">
        <ele>126.07</ele>
        <time>2017-07-30T08:34:33Z</time>
      </trkpt>
      <trkpt lat="50.66045" lon="4.27818">
        <ele>125.59</ele>
        <time>2017-07-30T08:34:42Z</time>
      </trkpt>
      <trkpt lat="50.6604" lon="4.27834">
        <ele>126.55</ele>
        <time>2017-07-30T08:34:51Z</time>
      </trkpt>
      <trkpt lat="50.66036" lon="4.27843">
        <ele>125.11</ele>
        <time>2017-07-30T08:34:56Z</time>
      </trkpt>
      <trkpt lat="50.66031" lon="4.27867">
        <ele>125.59</ele>
        <time>2017-07-30T08:35:08Z</time>
      </trkpt>
      <trkpt lat="50.66033" lon="4.27873">
        <ele>124.15</ele>
        <time>2017-07-30T08:35:10Z</time>
      </trkpt>
      <trkpt lat="50.66033" lon="4.27877">
        <ele>126.07</ele>
        <time>2017-07-30T08:35:12Z</time>
      </trkpt>
      <trkpt lat="50.66032" lon="4.27881">
        <ele>124.63</ele>
        <time>2017-07-30T08:35:14Z</time>
      </trkpt>
      <trkpt lat="50.66029" lon="4.27892">
        <ele>126.07</ele>
        <time>2017-07-30T08:35:20Z</time>
      </trkpt>
      <trkpt lat="50.66023" lon="4.27902">
        <ele>122.71</ele>
        <time>2017-07-30T08:35:26Z</time>
      </trkpt>
      <trkpt lat="50.66023" lon="4.27904">
        <ele>122.71</ele>
        <time>2017-07-30T08:35:27Z</time>
      </trkpt>
      <trkpt lat="50.66011" lon="4.27935">
        <ele>123.19</ele>
        <time>2017-07-30T08:35:43Z</time>
      </trkpt>
      <trkpt lat="50.66005" lon="4.27943">
        <ele>123.67</ele>
        <time>2017-07-30T08:35:47Z</time>
      </trkpt>
      <trkpt lat="50.65996" lon="4.27974">
        <ele>125.11</ele>
        <time>2017-07-30T08:36:05Z</time>
      </trkpt>
      <trkpt lat="50.65986" lon="4.27991">
        <ele>123.67</ele>
        <time>2017-07-30T08:36:17Z</time>
      </trkpt>
      <trkpt lat="50.6598" lon="4.27995">
        <ele>122.22</ele>
        <time>2017-07-30T08:36:21Z</time>
      </trkpt>
      <trkpt lat="50.65974" lon="4.28">
        <ele>123.67</ele>
        <time>2017-07-30T08:36:25Z</time>
      </trkpt>
      <trkpt lat="50.65967" lon="4.28012">
        <ele>122.22</ele>
        <time>2017-07-30T08:36:32Z</time>
      </trkpt>
      <trkpt lat="50.65951" lon="4.28035">
        <ele>122.22</ele>
        <time>2017-07-30T08:36:47Z</time>
      </trkpt>
      <trkpt lat="50.65943" lon="4.28044">
        <ele>124.15</ele>
        <time>2017-07-30T08:36:53Z</time>
      </trkpt>
      <trkpt lat="50.6594" lon="4.28048">
        <ele>122.22</ele>
        <time>2017-07-30T08:36:56Z</time>
      </trkpt>
      <trkpt lat="50.65934" lon="4.28055">
        <ele>123.19</ele>
        <time>2017-07-30T08:37:02Z</time>
      </trkpt>
      <trkpt lat="50.65929" lon="4.28061">
        <ele>121.26</ele>
        <time>2017-07-30T08:37:06Z</time>
      </trkpt>
      <trkpt lat="50.65922" lon="4.28065">
        <ele>124.15</ele>
        <time>2017-07-30T08:37:11Z</time>
      </trkpt>
      <trkpt lat="50.65919" lon="4.28067">
        <ele>122.71</ele>
        <time>2017-07-30T08:37:13Z</time>
      </trkpt>
      <trkpt lat="50.65907" lon="4.28074">
        <ele>122.71</ele>
        <time>2017-07-30T08:37:24Z</time>
      </trkpt>
      <trkpt lat="50.65889" lon="4.28092">
        <ele>122.71</ele>
        <time>2017-07-30T08:37:41Z</time>
      </trkpt>
      <trkpt lat="50.65881" lon="4.28092">
        <ele>121.26</ele>
        <time>2017-07-30T08:37:46Z</time>
      </trkpt>
      <trkpt lat="50.65871" lon="4.28096">
        <ele>120.78</ele>
        <time>2017-07-30T08:37:55Z</time>
      </trkpt>
      <trkpt lat="50.65864" lon="4.28097">
        <ele>122.71</ele>
        <time>2017-07-30T08:37:59Z</time>
      </trkpt>
      <trkpt lat="50.65846" lon="4.2811">
        <ele>122.22</ele>
        <time>2017-07-30T08:38:11Z</time>
      </trkpt>
      <trkpt lat="50.65845" lon="4.28111">
        <ele>120.78</ele>
        <time>2017-07-30T08:38:12Z</time>
      </trkpt>
      <trkpt lat="50.65843" lon="4.28111">
        <ele>120.78</ele>
        <time>2017-07-30T08:38:13Z</time>
      </trkpt>
      <trkpt lat="50.65839" lon="4.28112">
        <ele>122.71</ele>
        <time>2017-07-30T08:38:16Z</time>
      </trkpt>
      <trkpt lat="50.65835" lon="4.28112">
        <ele>121.26</ele>
        <time>2017-07-30T08:38:22Z</time>
      </trkpt>
      <trkpt lat="50.65833" lon="4.28116">
        <ele>121.26</ele>
        <time>2017-07-30T08:38:30Z</time>
      </trkpt>
      <trkpt lat="50.65831" lon="4.28116">
        <ele>121.74</ele>
        <time>2017-07-30T08:38:31Z</time>
      </trkpt>
      <trkpt lat="50.65818" lon="4.28097">
        <ele>121.74</ele>
        <time>2017-07-30T08:38:43Z</time>
      </trkpt>
      <trkpt lat="50.65799" lon="4.28077">
        <ele>120.3</ele>
        <time>2017-07-30T08:38:54Z</time>
      </trkpt>
      <trkpt lat="50.6579" lon="4.28074">
        <ele>122.71</ele>
        <time>2017-07-30T08:38:59Z</time>
      </trkpt>
      <trkpt lat="50.65781" lon="4.28069">
        <ele>121.74</ele>
        <time>2017-07-30T08:39:06Z</time>
      </trkpt>
      <trkpt lat="50.65775" lon="4.28067">
        <ele>119.82</ele>
        <time>2017-07-30T08:39:12Z</time>
      </trkpt>
      <trkpt lat="50.65773" lon="4.28067">
        <ele>118.38</ele>
        <time>2017-07-30T08:39:15Z</time>
      </trkpt>
      <trkpt lat="50.65767" lon="4.28069">
        <ele>120.3</ele>
        <time>2017-07-30T08:39:20Z</time>
      </trkpt>
      <trkpt lat="50.65744" lon="4.28085">
        <ele>120.3</ele>
        <time>2017-07-30T08:39:37Z</time>
      </trkpt>
      <trkpt lat="50.65728" lon="4.28092">
        <ele>120.3</ele>
        <time>2017-07-30T08:39:49Z</time>
      </trkpt>
      <trkpt lat="50.65724" lon="4.28092">
        <ele>119.34</ele>
        <time>2017-07-30T08:39:51Z</time>
      </trkpt>
      <trkpt lat="50.65699" lon="4.28103">
        <ele>117.42</ele>
        <time>2017-07-30T08:40:09Z</time>
      </trkpt>
      <trkpt lat="50.65686" lon="4.28115">
        <ele>118.38</ele>
        <time>2017-07-30T08:40:19Z</time>
      </trkpt>
      <trkpt lat="50.65675" lon="4.28119">
        <ele>115.5</ele>
        <time>2017-07-30T08:40:28Z</time>
      </trkpt>
      <trkpt lat="50.6567" lon="4.2812">
        <ele>116.94</ele>
        <time>2017-07-30T08:40:33Z</time>
      </trkpt>
      <trkpt lat="50.65652" lon="4.28108">
        <ele>115.5</ele>
        <time>2017-07-30T08:40:42Z</time>
      </trkpt>
      <trkpt lat="50.6564" lon="4.28101">
        <ele>112.13</ele>
        <time>2017-07-30T08:40:52Z</time>
      </trkpt>
      <trkpt lat="50.6564" lon="4.28101">
        <ele>112.13</ele>
        <time>2017-07-30T08:40:53Z</time>
      </trkpt>
      <trkpt lat="50.65602" lon="4.28092">
        <ele>108.29</ele>
        <time>2017-07-30T08:41:19Z</time>
      </trkpt>
      <trkpt lat="50.65602" lon="4.28091">
        <ele>108.29</ele>
        <time>2017-07-30T08:41:20Z</time>
      </trkpt>
      <trkpt lat="50.65574" lon="4.28075">
        <ele>105.88</ele>
        <time>2017-07-30T08:41:42Z</time>
      </trkpt>
      <trkpt lat="50.65571" lon="4.28072">
        <ele>107.32</ele>
        <time>2017-07-30T08:41:44Z</time>
      </trkpt>
      <trkpt lat="50.65559" lon="4.28062">
        <ele>105.88</ele>
        <time>2017-07-30T08:41:53Z</time>
      </trkpt>
      <trkpt lat="50.65535" lon="4.28049">
        <ele>102.04</ele>
        <time>2017-07-30T08:42:09Z</time>
      </trkpt>
      <trkpt lat="50.65533" lon="4.28048">
        <ele>102.04</ele>
        <time>2017-07-30T08:42:10Z</time>
      </trkpt>
      <trkpt lat="50.65532" lon="4.28047">
        <ele>105.4</ele>
        <time>2017-07-30T08:42:11Z</time>
      </trkpt>
      <trkpt lat="50.65532" lon="4.28045">
        <ele>105.4</ele>
        <time>2017-07-30T08:42:12Z</time>
      </trkpt>
      <trkpt lat="50.65529" lon="4.28042">
        <ele>102.04</ele>
        <time>2017-07-30T08:42:16Z</time>
      </trkpt>
      <trkpt lat="50.65526" lon="4.28038">
        <ele>103.96</ele>
        <time>2017-07-30T08:42:20Z</time>
      </trkpt>
      <trkpt lat="50.65523" lon="4.28036">
        <ele>102.52</ele>
        <time>2017-07-30T08:42:23Z</time>
      </trkpt>
      <trkpt lat="50.65521" lon="4.28034">
        <ele>100.11</ele>
        <time>2017-07-30T08:42:26Z</time>
      </trkpt>
      <trkpt lat="50.65514" lon="4.28032">
        <ele>102.04</ele>
        <time>2017-07-30T08:42:32Z</time>
      </trkpt>
      <trkpt lat="50.655" lon="4.28034">
        <ele>98.67</ele>
        <time>2017-07-30T08:42:46Z</time>
      </trkpt>
      <trkpt lat="50.65498" lon="4.28034">
        <ele>98.67</ele>
        <time>2017-07-30T08:42:47Z</time>
      </trkpt>
      <trkpt lat="50.65473" lon="4.28027">
        <ele>96.75</ele>
        <time>2017-07-30T08:43:09Z</time>
      </trkpt>
      <trkpt lat="50.65466" lon="4.28024">
        <ele>96.27</ele>
        <time>2017-07-30T08:43:15Z</time>
      </trkpt>
      <trkpt lat="50.65446" lon="4.28006">
        <ele>94.35</ele>
        <time>2017-07-30T08:43:30Z</time>
      </trkpt>
      <trkpt lat="50.65427" lon="4.2801">
        <ele>93.87</ele>
        <time>2017-07-30T08:43:39Z</time>
      </trkpt>
      <trkpt lat="50.65413" lon="4.28">
        <ele>92.9</ele>
        <time>2017-07-30T08:43:49Z</time>
      </trkpt>
      <trkpt lat="50.65404" lon="4.27987">
        <ele>92.42</ele>
        <time>2017-07-30T08:44:01Z</time>
      </trkpt>
      <trkpt lat="50.65401" lon="4.27985">
        <ele>90.5</ele>
        <time>2017-07-30T08:44:04Z</time>
      </trkpt>
      <trkpt lat="50.65397" lon="4.27985">
        <ele>90.5</ele>
        <time>2017-07-30T08:44:07Z</time>
      </trkpt>
      <trkpt lat="50.65378" lon="4.27981">
        <ele>87.14</ele>
        <time>2017-07-30T08:44:20Z</time>
      </trkpt>
      <trkpt lat="50.65369" lon="4.27982">
        <ele>88.58</ele>
        <time>2017-07-30T08:44:28Z</time>
      </trkpt>
      <trkpt lat="50.65359" lon="4.27978">
        <ele>86.18</ele>
        <time>2017-07-30T08:44:39Z</time>
      </trkpt>
      <trkpt lat="50.65347" lon="4.27978">
        <ele>84.73</ele>
        <time>2017-07-30T08:44:49Z</time>
      </trkpt>
      <trkpt lat="50.65342" lon="4.27978">
        <ele>83.29</ele>
        <time>2017-07-30T08:44:52Z</time>
      </trkpt>
      <trkpt lat="50.65322" lon="4.27979">
        <ele>80.89</ele>
        <time>2017-07-30T08:45:10Z</time>
      </trkpt>
      <trkpt lat="50.65314" lon="4.27978">
        <ele>78.97</ele>
        <time>2017-07-30T08:45:15Z</time>
      </trkpt>
      <trkpt lat="50.65303" lon="4.27977">
        <ele>81.37</ele>
        <time>2017-07-30T08:45:22Z</time>
      </trkpt>
      <trkpt lat="50.65296" lon="4.27975">
        <ele>79.93</ele>
        <time>2017-07-30T08:45:28Z</time>
      </trkpt>
      <trkpt lat="50.65262" lon="4.27966">
        <ele>78.97</ele>
        <time>2017-07-30T08:45:52Z</time>
      </trkpt>
      <trkpt lat="50.65235" lon="4.27952">
        <ele>79.45</ele>
        <time>2017-07-30T08:46:11Z</time>
      </trkpt>
      <trkpt lat="50.65222" lon="4.2795">
        <ele>78</ele>
        <time>2017-07-30T08:46:19Z</time>
      </trkpt>
      <trkpt lat="50.65214" lon="4.27948">
        <ele>79.45</ele>
        <time>2017-07-30T08:46:25Z</time>
      </trkpt>
      <trkpt lat="50.65208" lon="4.27947">
        <ele>78</ele>
        <time>2017-07-30T08:46:29Z</time>
      </trkpt>
      <trkpt lat="50.65204" lon="4.2795">
        <ele>77.04</ele>
        <time>2017-07-30T08:46:32Z</time>
      </trkpt>
      <trkpt lat="50.65204" lon="4.27951">
        <ele>76.56</ele>
        <time>2017-07-30T08:46:33Z</time>
      </trkpt>
      <trkpt lat="50.65203" lon="4.27953">
        <ele>76.56</ele>
        <time>2017-07-30T08:46:34Z</time>
      </trkpt>
      <trkpt lat="50.65202" lon="4.27961">
        <ele>77.04</ele>
        <time>2017-07-30T08:46:38Z</time>
      </trkpt>
      <trkpt lat="50.65203" lon="4.27985">
        <ele>77.04</ele>
        <time>2017-07-30T08:46:49Z</time>
      </trkpt>
      <trkpt lat="50.65203" lon="4.27989">
        <ele>76.56</ele>
        <time>2017-07-30T08:46:51Z</time>
      </trkpt>
      <trkpt lat="50.65205" lon="4.28012">
        <ele>78.48</ele>
        <time>2017-07-30T08:47:02Z</time>
      </trkpt>
      <trkpt lat="50.65209" lon="4.2803">
        <ele>78.48</ele>
        <time>2017-07-30T08:47:10Z</time>
      </trkpt>
      <trkpt lat="50.65224" lon="4.28068">
        <ele>77.52</ele>
        <time>2017-07-30T08:47:29Z</time>
      </trkpt>
      <trkpt lat="50.65231" lon="4.28085">
        <ele>78.48</ele>
        <time>2017-07-30T08:47:38Z</time>
      </trkpt>
      <trkpt lat="50.65233" lon="4.28091">
        <ele>77.52</ele>
        <time>2017-07-30T08:47:41Z</time>
      </trkpt>
      <trkpt lat="50.65236" lon="4.281">
        <ele>77.04</ele>
        <time>2017-07-30T08:47:46Z</time>
      </trkpt>
      <trkpt lat="50.65245" lon="4.28117">
        <ele>76.08</ele>
        <time>2017-07-30T08:48:01Z</time>
      </trkpt>
      <trkpt lat="50.65254" lon="4.28134">
        <ele>78.48</ele>
        <time>2017-07-30T08:48:24Z</time>
      </trkpt>
      <trkpt lat="50.65261" lon="4.28143">
        <ele>77.52</ele>
        <time>2017-07-30T08:48:30Z</time>
      </trkpt>
      <trkpt lat="50.65268" lon="4.28173">
        <ele>77.04</ele>
        <time>2017-07-30T08:48:45Z</time>
      </trkpt>
      <trkpt lat="50.6527" lon="4.28176">
        <ele>79.45</ele>
        <time>2017-07-30T08:48:47Z</time>
      </trkpt>
      <trkpt lat="50.65271" lon="4.28178">
        <ele>79.45</ele>
        <time>2017-07-30T08:48:48Z</time>
      </trkpt>
      <trkpt lat="50.65272" lon="4.28179">
        <ele>78.97</ele>
        <time>2017-07-30T08:48:49Z</time>
      </trkpt>
      <trkpt lat="50.65278" lon="4.28187">
        <ele>78.97</ele>
        <time>2017-07-30T08:48:55Z</time>
      </trkpt>
      <trkpt lat="50.65281" lon="4.28192">
        <ele>77.52</ele>
        <time>2017-07-30T08:48:58Z</time>
      </trkpt>
      <trkpt lat="50.65282" lon="4.28196">
        <ele>78.97</ele>
        <time>2017-07-30T08:49:00Z</time>
      </trkpt>
      <trkpt lat="50.65285" lon="4.28204">
        <ele>77.52</ele>
        <time>2017-07-30T08:49:04Z</time>
      </trkpt>
      <trkpt lat="50.65288" lon="4.28208">
        <ele>78.97</ele>
        <time>2017-07-30T08:49:07Z</time>
      </trkpt>
      <trkpt lat="50.65294" lon="4.28226">
        <ele>79.45</ele>
        <time>2017-07-30T08:49:17Z</time>
      </trkpt>
      <trkpt lat="50.65296" lon="4.28227">
        <ele>79.45</ele>
        <time>2017-07-30T08:49:18Z</time>
      </trkpt>
      <trkpt lat="50.65297" lon="4.28228">
        <ele>79.45</ele>
        <time>2017-07-30T08:49:19Z</time>
      </trkpt>
      <trkpt lat="50.65298" lon="4.28229">
        <ele>79.45</ele>
        <time>2017-07-30T08:49:20Z</time>
      </trkpt>
      <trkpt lat="50.65299" lon="4.2823">
        <ele>79.45</ele>
        <time>2017-07-30T08:49:21Z</time>
      </trkpt>
      <trkpt lat="50.653" lon="4.28232">
        <ele>79.45</ele>
        <time>2017-07-30T08:49:22Z</time>
      </trkpt>
      <trkpt lat="50.65302" lon="4.28239">
        <ele>78</ele>
        <time>2017-07-30T08:49:26Z</time>
      </trkpt>
      <trkpt lat="50.65308" lon="4.28251">
        <ele>79.93</ele>
        <time>2017-07-30T08:49:33Z</time>
      </trkpt>
      <trkpt lat="50.65321" lon="4.28281">
        <ele>79.93</ele>
        <time>2017-07-30T08:49:50Z</time>
      </trkpt>
      <trkpt lat="50.65328" lon="4.28299">
        <ele>78.97</ele>
        <time>2017-07-30T08:49:59Z</time>
      </trkpt>
      <trkpt lat="50.65331" lon="4.28313">
        <ele>80.41</ele>
        <time>2017-07-30T08:50:05Z</time>
      </trkpt>
      <trkpt lat="50.65336" lon="4.28332">
        <ele>80.41</ele>
        <time>2017-07-30T08:50:14Z</time>
      </trkpt>
      <trkpt lat="50.65343" lon="4.28353">
        <ele>79.45</ele>
        <time>2017-07-30T08:50:26Z</time>
      </trkpt>
      <trkpt lat="50.65354" lon="4.28383">
        <ele>81.37</ele>
        <time>2017-07-30T08:50:44Z</time>
      </trkpt>
      <trkpt lat="50.65366" lon="4.28418">
        <ele>81.85</ele>
        <time>2017-07-30T08:51:02Z</time>
      </trkpt>
      <trkpt lat="50.65379" lon="4.28445">
        <ele>80.89</ele>
        <time>2017-07-30T08:51:19Z</time>
      </trkpt>
      <trkpt lat="50.65381" lon="4.28446">
        <ele>80.89</ele>
        <time>2017-07-30T08:51:20Z</time>
      </trkpt>
      <trkpt lat="50.65388" lon="4.28452">
        <ele>82.81</ele>
        <time>2017-07-30T08:51:27Z</time>
      </trkpt>
      <trkpt lat="50.65392" lon="4.28466">
        <ele>81.37</ele>
        <time>2017-07-30T08:51:34Z</time>
      </trkpt>
      <trkpt lat="50.65404" lon="4.2849">
        <ele>82.81</ele>
        <time>2017-07-30T08:51:49Z</time>
      </trkpt>
      <trkpt lat="50.65408" lon="4.28492">
        <ele>81.37</ele>
        <time>2017-07-30T08:51:52Z</time>
      </trkpt>
      <trkpt lat="50.65412" lon="4.28508">
        <ele>82.81</ele>
        <time>2017-07-30T08:51:58Z</time>
      </trkpt>
      <trkpt lat="50.65414" lon="4.28511">
        <ele>82.81</ele>
        <time>2017-07-30T08:51:59Z</time>
      </trkpt>
      <trkpt lat="50.65415" lon="4.28512">
        <ele>82.81</ele>
        <time>2017-07-30T08:52:00Z</time>
      </trkpt>
      <trkpt lat="50.6542" lon="4.28519">
        <ele>81.85</ele>
        <time>2017-07-30T08:52:05Z</time>
      </trkpt>
      <trkpt lat="50.65424" lon="4.28525">
        <ele>82.81</ele>
        <time>2017-07-30T08:52:09Z</time>
      </trkpt>
      <trkpt lat="50.65425" lon="4.28528">
        <ele>81.37</ele>
        <time>2017-07-30T08:52:11Z</time>
      </trkpt>
      <trkpt lat="50.65429" lon="4.28537">
        <ele>82.81</ele>
        <time>2017-07-30T08:52:16Z</time>
      </trkpt>
      <trkpt lat="50.65444" lon="4.28569">
        <ele>82.33</ele>
        <time>2017-07-30T08:52:36Z</time>
      </trkpt>
      <trkpt lat="50.65459" lon="4.28595">
        <ele>83.77</ele>
        <time>2017-07-30T08:52:51Z</time>
      </trkpt>
      <trkpt lat="50.65459" lon="4.28619">
        <ele>83.77</ele>
        <time>2017-07-30T08:53:01Z</time>
      </trkpt>
      <trkpt lat="50.65459" lon="4.28652">
        <ele>84.73</ele>
        <time>2017-07-30T08:53:17Z</time>
      </trkpt>
      <trkpt lat="50.65457" lon="4.28662">
        <ele>82.33</ele>
        <time>2017-07-30T08:53:22Z</time>
      </trkpt>
      <trkpt lat="50.65459" lon="4.28676">
        <ele>83.77</ele>
        <time>2017-07-30T08:53:27Z</time>
      </trkpt>
      <trkpt lat="50.65462" lon="4.28691">
        <ele>81.85</ele>
        <time>2017-07-30T08:53:34Z</time>
      </trkpt>
      <trkpt lat="50.65463" lon="4.28698">
        <ele>83.29</ele>
        <time>2017-07-30T08:53:37Z</time>
      </trkpt>
      <trkpt lat="50.65466" lon="4.28718">
        <ele>82.33</ele>
        <time>2017-07-30T08:53:46Z</time>
      </trkpt>
      <trkpt lat="50.65467" lon="4.28726">
        <ele>84.25</ele>
        <time>2017-07-30T08:53:50Z</time>
      </trkpt>
      <trkpt lat="50.65468" lon="4.2873">
        <ele>82.33</ele>
        <time>2017-07-30T08:53:52Z</time>
      </trkpt>
      <trkpt lat="50.6547" lon="4.28768">
        <ele>84.25</ele>
        <time>2017-07-30T08:54:08Z</time>
      </trkpt>
      <trkpt lat="50.6547" lon="4.28771">
        <ele>84.73</ele>
        <time>2017-07-30T08:54:09Z</time>
      </trkpt>
      <trkpt lat="50.65465" lon="4.2879">
        <ele>82.81</ele>
        <time>2017-07-30T08:54:18Z</time>
      </trkpt>
      <trkpt lat="50.65464" lon="4.28792">
        <ele>84.25</ele>
        <time>2017-07-30T08:54:19Z</time>
      </trkpt>
      <trkpt lat="50.65463" lon="4.28795">
        <ele>84.73</ele>
        <time>2017-07-30T08:54:20Z</time>
      </trkpt>
      <trkpt lat="50.65462" lon="4.28812">
        <ele>84.73</ele>
        <time>2017-07-30T08:54:28Z</time>
      </trkpt>
      <trkpt lat="50.6546" lon="4.28821">
        <ele>82.81</ele>
        <time>2017-07-30T08:54:32Z</time>
      </trkpt>
      <trkpt lat="50.65463" lon="4.28846">
        <ele>82.81</ele>
        <time>2017-07-30T08:54:44Z</time>
      </trkpt>
      <trkpt lat="50.65465" lon="4.28866">
        <ele>84.25</ele>
        <time>2017-07-30T08:54:53Z</time>
      </trkpt>
      <trkpt lat="50.65465" lon="4.2888">
        <ele>83.29</ele>
        <time>2017-07-30T08:54:59Z</time>
      </trkpt>
      <trkpt lat="50.65467" lon="4.28922">
        <ele>84.73</ele>
        <time>2017-07-30T08:55:19Z</time>
      </trkpt>
      <trkpt lat="50.65472" lon="4.28934">
        <ele>84.25</ele>
        <time>2017-07-30T08:55:27Z</time>
      </trkpt>
      <trkpt lat="50.6547" lon="4.28941">
        <ele>85.21</ele>
        <time>2017-07-30T08:55:31Z</time>
      </trkpt>
      <trkpt lat="50.65455" lon="4.2895">
        <ele>85.21</ele>
        <time>2017-07-30T08:55:42Z</time>
      </trkpt>
      <trkpt lat="50.65448" lon="4.2895">
        <ele>84.25</ele>
        <time>2017-07-30T08:55:45Z</time>
      </trkpt>
      <trkpt lat="50.65428" lon="4.2896">
        <ele>84.73</ele>
        <time>2017-07-30T08:55:59Z</time>
      </trkpt>
      <trkpt lat="50.65421" lon="4.28979">
        <ele>85.21</ele>
        <time>2017-07-30T08:56:10Z</time>
      </trkpt>
      <trkpt lat="50.65405" lon="4.29012">
        <ele>85.21</ele>
        <time>2017-07-30T08:56:29Z</time>
      </trkpt>
      <trkpt lat="50.65398" lon="4.29023">
        <ele>85.69</ele>
        <time>2017-07-30T08:56:37Z</time>
      </trkpt>
      <trkpt lat="50.65388" lon="4.29044">
        <ele>83.77</ele>
        <time>2017-07-30T08:56:52Z</time>
      </trkpt>
      <trkpt lat="50.65379" lon="4.29063">
        <ele>85.21</ele>
        <time>2017-07-30T08:57:01Z</time>
      </trkpt>
      <trkpt lat="50.65368" lon="4.29095">
        <ele>85.21</ele>
        <time>2017-07-30T08:57:21Z</time>
      </trkpt>
      <trkpt lat="50.65356" lon="4.29115">
        <ele>84.25</ele>
        <time>2017-07-30T08:57:37Z</time>
      </trkpt>
      <trkpt lat="50.65345" lon="4.29134">
        <ele>86.18</ele>
        <time>2017-07-30T08:57:49Z</time>
      </trkpt>
      <trkpt lat="50.65326" lon="4.29168">
        <ele>86.66</ele>
        <time>2017-07-30T08:58:09Z</time>
      </trkpt>
      <trkpt lat="50.65322" lon="4.29172">
        <ele>85.69</ele>
        <time>2017-07-30T08:58:12Z</time>
      </trkpt>
      <trkpt lat="50.65299" lon="4.29199">
        <ele>86.66</ele>
        <time>2017-07-30T08:58:30Z</time>
      </trkpt>
      <trkpt lat="50.6528" lon="4.29232">
        <ele>86.18</ele>
        <time>2017-07-30T08:58:49Z</time>
      </trkpt>
      <trkpt lat="50.65272" lon="4.29246">
        <ele>84.73</ele>
        <time>2017-07-30T08:58:57Z</time>
      </trkpt>
      <trkpt lat="50.65269" lon="4.29253">
        <ele>86.66</ele>
        <time>2017-07-30T08:59:01Z</time>
      </trkpt>
      <trkpt lat="50.65258" lon="4.29286">
        <ele>86.66</ele>
        <time>2017-07-30T08:59:18Z</time>
      </trkpt>
      <trkpt lat="50.65247" lon="4.29328">
        <ele>85.69</ele>
        <time>2017-07-30T08:59:39Z</time>
      </trkpt>
      <trkpt lat="50.65244" lon="4.29373">
        <ele>86.66</ele>
        <time>2017-07-30T09:00:00Z</time>
      </trkpt>
      <trkpt lat="50.65245" lon="4.2938">
        <ele>85.21</ele>
        <time>2017-07-30T09:00:04Z</time>
      </trkpt>
      <trkpt lat="50.65245" lon="4.29382">
        <ele>86.66</ele>
        <time>2017-07-30T09:00:05Z</time>
      </trkpt>
      <trkpt lat="50.65247" lon="4.29386">
        <ele>86.18</ele>
        <time>2017-07-30T09:00:07Z</time>
      </trkpt>
      <trkpt lat="50.65249" lon="4.29395">
        <ele>84.25</ele>
        <time>2017-07-30T09:00:12Z</time>
      </trkpt>
      <trkpt lat="50.65252" lon="4.29398">
        <ele>84.25</ele>
        <time>2017-07-30T09:00:15Z</time>
      </trkpt>
      <trkpt lat="50.65254" lon="4.29398">
        <ele>86.18</ele>
        <time>2017-07-30T09:00:16Z</time>
      </trkpt>
      <trkpt lat="50.65259" lon="4.294">
        <ele>86.18</ele>
        <time>2017-07-30T09:00:20Z</time>
      </trkpt>
      <trkpt lat="50.6528" lon="4.29407">
        <ele>85.69</ele>
        <time>2017-07-30T09:00:34Z</time>
      </trkpt>
      <trkpt lat="50.65285" lon="4.29412">
        <ele>88.58</ele>
        <time>2017-07-30T09:00:39Z</time>
      </trkpt>
      <trkpt lat="50.65293" lon="4.29426">
        <ele>90.5</ele>
        <time>2017-07-30T09:00:48Z</time>
      </trkpt>
      <trkpt lat="50.65296" lon="4.29428">
        <ele>88.58</ele>
        <time>2017-07-30T09:00:50Z</time>
      </trkpt>
      <trkpt lat="50.65299" lon="4.29432">
        <ele>91.46</ele>
        <time>2017-07-30T09:00:54Z</time>
      </trkpt>
      <trkpt lat="50.653" lon="4.29435">
        <ele>92.42</ele>
        <time>2017-07-30T09:00:58Z</time>
      </trkpt>
      <trkpt lat="50.65301" lon="4.29437">
        <ele>92.9</ele>
        <time>2017-07-30T09:00:59Z</time>
      </trkpt>
      <trkpt lat="50.6531" lon="4.29448">
        <ele>92.42</ele>
        <time>2017-07-30T09:01:09Z</time>
      </trkpt>
      <trkpt lat="50.65315" lon="4.29456">
        <ele>94.35</ele>
        <time>2017-07-30T09:01:15Z</time>
      </trkpt>
      <trkpt lat="50.65318" lon="4.29464">
        <ele>96.75</ele>
        <time>2017-07-30T09:01:20Z</time>
      </trkpt>
      <trkpt lat="50.65326" lon="4.29488">
        <ele>98.67</ele>
        <time>2017-07-30T09:01:34Z</time>
      </trkpt>
      <trkpt lat="50.6533" lon="4.29495">
        <ele>100.11</ele>
        <time>2017-07-30T09:01:39Z</time>
      </trkpt>
      <trkpt lat="50.65333" lon="4.29498">
        <ele>98.67</ele>
        <time>2017-07-30T09:01:42Z</time>
      </trkpt>
      <trkpt lat="50.65335" lon="4.295">
        <ele>100.6</ele>
        <time>2017-07-30T09:01:44Z</time>
      </trkpt>
      <trkpt lat="50.65352" lon="4.2952">
        <ele>101.08</ele>
        <time>2017-07-30T09:02:01Z</time>
      </trkpt>
      <trkpt lat="50.6536" lon="4.29527">
        <ele>104.92</ele>
        <time>2017-07-30T09:02:08Z</time>
      </trkpt>
      <trkpt lat="50.6538" lon="4.29536">
        <ele>105.4</ele>
        <time>2017-07-30T09:02:30Z</time>
      </trkpt>
      <trkpt lat="50.65386" lon="4.29538">
        <ele>107.32</ele>
        <time>2017-07-30T09:02:36Z</time>
      </trkpt>
      <trkpt lat="50.6539" lon="4.2954">
        <ele>107.32</ele>
        <time>2017-07-30T09:02:41Z</time>
      </trkpt>
      <trkpt lat="50.65409" lon="4.29544">
        <ele>109.25</ele>
        <time>2017-07-30T09:02:59Z</time>
      </trkpt>
      <trkpt lat="50.65407" lon="4.29547">
        <ele>107.81</ele>
        <time>2017-07-30T09:03:10Z</time>
      </trkpt>
      <trkpt lat="50.65412" lon="4.2955">
        <ele>110.21</ele>
        <time>2017-07-30T09:03:13Z</time>
      </trkpt>
      <trkpt lat="50.65441" lon="4.29567">
        <ele>111.65</ele>
        <time>2017-07-30T09:03:35Z</time>
      </trkpt>
      <trkpt lat="50.65436" lon="4.2958">
        <ele>113.09</ele>
        <time>2017-07-30T09:03:42Z</time>
      </trkpt>
      <trkpt lat="50.65432" lon="4.29594">
        <ele>111.17</ele>
        <time>2017-07-30T09:04:06Z</time>
      </trkpt>
      <trkpt lat="50.65436" lon="4.2959">
        <ele>111.17</ele>
        <time>2017-07-30T09:04:27Z</time>
      </trkpt>
      <trkpt lat="50.65432" lon="4.29592">
        <ele>112.61</ele>
        <time>2017-07-30T09:04:53Z</time>
      </trkpt>
      <trkpt lat="50.65432" lon="4.29591">
        <ele>110.21</ele>
        <time>2017-07-30T09:05:02Z</time>
      </trkpt>
      <trkpt lat="50.65431" lon="4.29591">
        <ele>114.53</ele>
        <time>2017-07-30T09:05:17Z</time>
      </trkpt>
      <trkpt lat="50.6543" lon="4.2959">
        <ele>111.17</ele>
        <time>2017-07-30T09:05:19Z</time>
      </trkpt>
      <trkpt lat="50.6543" lon="4.2959">
        <ele>111.65</ele>
        <time>2017-07-30T09:05:23Z</time>
      </trkpt>
      <trkpt lat="50.65432" lon="4.29593">
        <ele>112.61</ele>
        <time>2017-07-30T09:05:36Z</time>
      </trkpt>
      <trkpt lat="50.65432" lon="4.29593">
        <ele>113.09</ele>
        <time>2017-07-30T09:05:40Z</time>
      </trkpt>
      <trkpt lat="50.65432" lon="4.29593">
        <ele>111.65</ele>
        <time>2017-07-30T09:05:43Z</time>
      </trkpt>
      <trkpt lat="50.65432" lon="4.29592">
        <ele>113.57</ele>
        <time>2017-07-30T09:05:49Z</time>
      </trkpt>
      <trkpt lat="50.65433" lon="4.29592">
        <ele>111.17</ele>
        <time>2017-07-30T09:05:55Z</time>
      </trkpt>
      <trkpt lat="50.65434" lon="4.29591">
        <ele>112.61</ele>
        <time>2017-07-30T09:06:04Z</time>
      </trkpt>
      <trkpt lat="50.65429" lon="4.2959">
        <ele>112.61</ele>
        <time>2017-07-30T09:06:25Z</time>
      </trkpt>
      <trkpt lat="50.6543" lon="4.2959">
        <ele>112.61</ele>
        <time>2017-07-30T09:06:46Z</time>
      </trkpt>
      <trkpt lat="50.65431" lon="4.29593">
        <ele>111.65</ele>
        <time>2017-07-30T09:07:16Z</time>
      </trkpt>
    </trkseg>
  </trk>
</gpx>